<?xml version="1.0" encoding="UTF-8"?>
<gpx version="1.1" creator="RoadTrp.org" xmlns="http://www.topografix.com/GPX/1/1">
<trk><name>Huff &amp; Puff Freedom Trail — Oak Grove Elementary — July 24, 2026</name><trkseg>
<trkpt lat="35.143508" lon="-84.843427"><ele>274.0</ele><time>2026-07-24T17:02:34Z</time></trkpt>
<trkpt lat="35.143512" lon="-84.843465"><ele>273.4</ele><time>2026-07-24T17:02:38Z</time></trkpt>
<trkpt lat="35.143531" lon="-84.843492"><ele>272.5</ele><time>2026-07-24T17:02:41Z</time></trkpt>
<trkpt lat="35.143546" lon="-84.843526"><ele>272.5</ele><time>2026-07-24T17:02:44Z</time></trkpt>
<trkpt lat="35.143557" lon="-84.843559"><ele>272.8</ele><time>2026-07-24T17:02:47Z</time></trkpt>
<trkpt lat="35.143569" lon="-84.843594"><ele>272.5</ele><time>2026-07-24T17:02:50Z</time></trkpt>
<trkpt lat="35.143594" lon="-84.84363"><ele>272.8</ele><time>2026-07-24T17:02:53Z</time></trkpt>
<trkpt lat="35.143616" lon="-84.843653"><ele>273.1</ele><time>2026-07-24T17:02:55Z</time></trkpt>
<trkpt lat="35.143594" lon="-84.843677"><ele>272.5</ele><time>2026-07-24T17:02:59Z</time></trkpt>
<trkpt lat="35.143582" lon="-84.843677"><ele>271.9</ele><time>2026-07-24T17:03:00Z</time></trkpt>
<trkpt lat="35.143576" lon="-84.843669"><ele>271.6</ele><time>2026-07-24T17:03:01Z</time></trkpt>
<trkpt lat="35.143572" lon="-84.843664"><ele>270.4</ele><time>2026-07-24T17:03:02Z</time></trkpt>
<trkpt lat="35.143567" lon="-84.843668"><ele>270.4</ele><time>2026-07-24T17:03:03Z</time></trkpt>
<trkpt lat="35.143574" lon="-84.843708"><ele>272.5</ele><time>2026-07-24T17:03:06Z</time></trkpt>
<trkpt lat="35.143584" lon="-84.843754"><ele>273.1</ele><time>2026-07-24T17:03:09Z</time></trkpt>
<trkpt lat="35.143601" lon="-84.843783"><ele>271.0</ele><time>2026-07-24T17:03:11Z</time></trkpt>
<trkpt lat="35.143606" lon="-84.843821"><ele>270.7</ele><time>2026-07-24T17:03:13Z</time></trkpt>
<trkpt lat="35.143637" lon="-84.84385"><ele>272.2</ele><time>2026-07-24T17:03:15Z</time></trkpt>
<trkpt lat="35.143654" lon="-84.843878"><ele>272.2</ele><time>2026-07-24T17:03:17Z</time></trkpt>
<trkpt lat="35.143668" lon="-84.843912"><ele>271.6</ele><time>2026-07-24T17:03:19Z</time></trkpt>
<trkpt lat="35.143684" lon="-84.84395"><ele>272.5</ele><time>2026-07-24T17:03:21Z</time></trkpt>
<trkpt lat="35.143706" lon="-84.843977"><ele>272.8</ele><time>2026-07-24T17:03:23Z</time></trkpt>
<trkpt lat="35.143728" lon="-84.844002"><ele>273.1</ele><time>2026-07-24T17:03:25Z</time></trkpt>
<trkpt lat="35.143745" lon="-84.844031"><ele>274.3</ele><time>2026-07-24T17:03:27Z</time></trkpt>
<trkpt lat="35.143748" lon="-84.844071"><ele>274.6</ele><time>2026-07-24T17:03:30Z</time></trkpt>
<trkpt lat="35.143767" lon="-84.844108"><ele>274.6</ele><time>2026-07-24T17:03:33Z</time></trkpt>
<trkpt lat="35.143769" lon="-84.844144"><ele>274.9</ele><time>2026-07-24T17:03:36Z</time></trkpt>
<trkpt lat="35.143765" lon="-84.844177"><ele>275.2</ele><time>2026-07-24T17:03:38Z</time></trkpt>
<trkpt lat="35.143751" lon="-84.844207"><ele>274.3</ele><time>2026-07-24T17:03:40Z</time></trkpt>
<trkpt lat="35.143765" lon="-84.844247"><ele>272.5</ele><time>2026-07-24T17:03:44Z</time></trkpt>
<trkpt lat="35.143781" lon="-84.844281"><ele>272.2</ele><time>2026-07-24T17:03:46Z</time></trkpt>
<trkpt lat="35.143794" lon="-84.844313"><ele>272.5</ele><time>2026-07-24T17:03:48Z</time></trkpt>
<trkpt lat="35.143811" lon="-84.844342"><ele>273.1</ele><time>2026-07-24T17:03:50Z</time></trkpt>
<trkpt lat="35.143826" lon="-84.844373"><ele>273.4</ele><time>2026-07-24T17:03:52Z</time></trkpt>
<trkpt lat="35.143854" lon="-84.844407"><ele>273.1</ele><time>2026-07-24T17:03:55Z</time></trkpt>
<trkpt lat="35.143879" lon="-84.844422"><ele>272.5</ele><time>2026-07-24T17:03:57Z</time></trkpt>
<trkpt lat="35.143901" lon="-84.844441"><ele>273.7</ele><time>2026-07-24T17:03:59Z</time></trkpt>
<trkpt lat="35.143931" lon="-84.844472"><ele>275.2</ele><time>2026-07-24T17:04:02Z</time></trkpt>
<trkpt lat="35.143969" lon="-84.844496"><ele>274.9</ele><time>2026-07-24T17:04:04Z</time></trkpt>
<trkpt lat="35.144" lon="-84.844515"><ele>275.8</ele><time>2026-07-24T17:04:06Z</time></trkpt>
<trkpt lat="35.144027" lon="-84.844543"><ele>274.6</ele><time>2026-07-24T17:04:10Z</time></trkpt>
<trkpt lat="35.144054" lon="-84.844568"><ele>273.7</ele><time>2026-07-24T17:04:13Z</time></trkpt>
<trkpt lat="35.144072" lon="-84.844597"><ele>273.4</ele><time>2026-07-24T17:04:15Z</time></trkpt>
<trkpt lat="35.14409" lon="-84.844629"><ele>273.1</ele><time>2026-07-24T17:04:17Z</time></trkpt>
<trkpt lat="35.144104" lon="-84.844664"><ele>273.1</ele><time>2026-07-24T17:04:20Z</time></trkpt>
<trkpt lat="35.144122" lon="-84.844703"><ele>272.8</ele><time>2026-07-24T17:04:23Z</time></trkpt>
<trkpt lat="35.14414" lon="-84.844735"><ele>273.1</ele><time>2026-07-24T17:04:26Z</time></trkpt>
<trkpt lat="35.144151" lon="-84.844774"><ele>273.7</ele><time>2026-07-24T17:04:29Z</time></trkpt>
<trkpt lat="35.144158" lon="-84.844818"><ele>273.1</ele><time>2026-07-24T17:04:32Z</time></trkpt>
<trkpt lat="35.144157" lon="-84.844854"><ele>271.3</ele><time>2026-07-24T17:04:36Z</time></trkpt>
<trkpt lat="35.144124" lon="-84.844879"><ele>271.0</ele><time>2026-07-24T17:04:39Z</time></trkpt>
<trkpt lat="35.144098" lon="-84.844892"><ele>270.4</ele><time>2026-07-24T17:04:41Z</time></trkpt>
<trkpt lat="35.144057" lon="-84.844913"><ele>269.4</ele><time>2026-07-24T17:04:44Z</time></trkpt>
<trkpt lat="35.144028" lon="-84.844926"><ele>270.4</ele><time>2026-07-24T17:04:46Z</time></trkpt>
<trkpt lat="35.143996" lon="-84.844931"><ele>271.6</ele><time>2026-07-24T17:04:48Z</time></trkpt>
<trkpt lat="35.143961" lon="-84.84493"><ele>273.4</ele><time>2026-07-24T17:04:50Z</time></trkpt>
<trkpt lat="35.143931" lon="-84.844939"><ele>274.9</ele><time>2026-07-24T17:04:52Z</time></trkpt>
<trkpt lat="35.143898" lon="-84.844942"><ele>276.5</ele><time>2026-07-24T17:04:55Z</time></trkpt>
<trkpt lat="35.143861" lon="-84.844936"><ele>275.8</ele><time>2026-07-24T17:04:58Z</time></trkpt>
<trkpt lat="35.143826" lon="-84.844944"><ele>274.9</ele><time>2026-07-24T17:05:00Z</time></trkpt>
<trkpt lat="35.143797" lon="-84.844971"><ele>274.9</ele><time>2026-07-24T17:05:03Z</time></trkpt>
<trkpt lat="35.143766" lon="-84.844986"><ele>276.1</ele><time>2026-07-24T17:05:06Z</time></trkpt>
<trkpt lat="35.143731" lon="-84.844993"><ele>275.5</ele><time>2026-07-24T17:05:09Z</time></trkpt>
<trkpt lat="35.143705" lon="-84.84498"><ele>274.0</ele><time>2026-07-24T17:05:11Z</time></trkpt>
<trkpt lat="35.143664" lon="-84.844979"><ele>274.9</ele><time>2026-07-24T17:05:14Z</time></trkpt>
<trkpt lat="35.143639" lon="-84.844995"><ele>273.4</ele><time>2026-07-24T17:05:16Z</time></trkpt>
<trkpt lat="35.143616" lon="-84.845019"><ele>273.4</ele><time>2026-07-24T17:05:18Z</time></trkpt>
<trkpt lat="35.143584" lon="-84.845043"><ele>274.6</ele><time>2026-07-24T17:05:21Z</time></trkpt>
<trkpt lat="35.143555" lon="-84.845046"><ele>274.0</ele><time>2026-07-24T17:05:23Z</time></trkpt>
<trkpt lat="35.143521" lon="-84.845055"><ele>273.4</ele><time>2026-07-24T17:05:26Z</time></trkpt>
<trkpt lat="35.143479" lon="-84.845058"><ele>273.4</ele><time>2026-07-24T17:05:29Z</time></trkpt>
<trkpt lat="35.143445" lon="-84.84507"><ele>273.1</ele><time>2026-07-24T17:05:31Z</time></trkpt>
<trkpt lat="35.14342" lon="-84.845093"><ele>272.8</ele><time>2026-07-24T17:05:34Z</time></trkpt>
<trkpt lat="35.143406" lon="-84.845133"><ele>271.6</ele><time>2026-07-24T17:05:37Z</time></trkpt>
<trkpt lat="35.143375" lon="-84.845161"><ele>271.3</ele><time>2026-07-24T17:05:40Z</time></trkpt>
<trkpt lat="35.143349" lon="-84.845194"><ele>270.4</ele><time>2026-07-24T17:05:43Z</time></trkpt>
<trkpt lat="35.143314" lon="-84.845218"><ele>271.3</ele><time>2026-07-24T17:05:46Z</time></trkpt>
<trkpt lat="35.143282" lon="-84.845218"><ele>271.0</ele><time>2026-07-24T17:05:48Z</time></trkpt>
<trkpt lat="35.14325" lon="-84.845208"><ele>271.0</ele><time>2026-07-24T17:05:50Z</time></trkpt>
<trkpt lat="35.143224" lon="-84.845178"><ele>271.9</ele><time>2026-07-24T17:05:52Z</time></trkpt>
<trkpt lat="35.143199" lon="-84.84515"><ele>273.7</ele><time>2026-07-24T17:05:54Z</time></trkpt>
<trkpt lat="35.143178" lon="-84.845115"><ele>274.0</ele><time>2026-07-24T17:05:56Z</time></trkpt>
<trkpt lat="35.143178" lon="-84.845071"><ele>274.9</ele><time>2026-07-24T17:05:59Z</time></trkpt>
<trkpt lat="35.143181" lon="-84.845034"><ele>274.0</ele><time>2026-07-24T17:06:03Z</time></trkpt>
<trkpt lat="35.143177" lon="-84.844992"><ele>273.4</ele><time>2026-07-24T17:06:06Z</time></trkpt>
<trkpt lat="35.143161" lon="-84.844952"><ele>272.8</ele><time>2026-07-24T17:06:09Z</time></trkpt>
<trkpt lat="35.143151" lon="-84.844913"><ele>272.8</ele><time>2026-07-24T17:06:12Z</time></trkpt>
<trkpt lat="35.143143" lon="-84.844867"><ele>273.4</ele><time>2026-07-24T17:06:15Z</time></trkpt>
<trkpt lat="35.143136" lon="-84.844835"><ele>273.1</ele><time>2026-07-24T17:06:17Z</time></trkpt>
<trkpt lat="35.143125" lon="-84.844786"><ele>271.3</ele><time>2026-07-24T17:06:20Z</time></trkpt>
<trkpt lat="35.143114" lon="-84.84475"><ele>271.9</ele><time>2026-07-24T17:06:22Z</time></trkpt>
<trkpt lat="35.143099" lon="-84.844718"><ele>271.3</ele><time>2026-07-24T17:06:25Z</time></trkpt>
<trkpt lat="35.143089" lon="-84.844677"><ele>273.1</ele><time>2026-07-24T17:06:28Z</time></trkpt>
<trkpt lat="35.143086" lon="-84.844641"><ele>274.3</ele><time>2026-07-24T17:06:30Z</time></trkpt>
<trkpt lat="35.143083" lon="-84.844596"><ele>274.0</ele><time>2026-07-24T17:06:33Z</time></trkpt>
<trkpt lat="35.143086" lon="-84.844549"><ele>274.9</ele><time>2026-07-24T17:06:36Z</time></trkpt>
<trkpt lat="35.143077" lon="-84.844516"><ele>274.9</ele><time>2026-07-24T17:06:38Z</time></trkpt>
<trkpt lat="35.143069" lon="-84.844476"><ele>275.5</ele><time>2026-07-24T17:06:40Z</time></trkpt>
<trkpt lat="35.143058" lon="-84.84443"><ele>275.8</ele><time>2026-07-24T17:06:42Z</time></trkpt>
<trkpt lat="35.143035" lon="-84.844405"><ele>274.3</ele><time>2026-07-24T17:06:45Z</time></trkpt>
<trkpt lat="35.143017" lon="-84.844379"><ele>274.3</ele><time>2026-07-24T17:06:48Z</time></trkpt>
<trkpt lat="35.143017" lon="-84.844336"><ele>273.7</ele><time>2026-07-24T17:06:51Z</time></trkpt>
<trkpt lat="35.14301" lon="-84.844292"><ele>273.7</ele><time>2026-07-24T17:06:54Z</time></trkpt>
<trkpt lat="35.143005" lon="-84.844258"><ele>273.1</ele><time>2026-07-24T17:06:57Z</time></trkpt>
<trkpt lat="35.143" lon="-84.844223"><ele>273.7</ele><time>2026-07-24T17:07:00Z</time></trkpt>
<trkpt lat="35.142996" lon="-84.844174"><ele>273.7</ele><time>2026-07-24T17:07:03Z</time></trkpt>
<trkpt lat="35.14299" lon="-84.84414"><ele>273.7</ele><time>2026-07-24T17:07:05Z</time></trkpt>
<trkpt lat="35.142982" lon="-84.844101"><ele>273.1</ele><time>2026-07-24T17:07:07Z</time></trkpt>
<trkpt lat="35.142978" lon="-84.844056"><ele>274.0</ele><time>2026-07-24T17:07:09Z</time></trkpt>
<trkpt lat="35.142966" lon="-84.84402"><ele>272.5</ele><time>2026-07-24T17:07:12Z</time></trkpt>
<trkpt lat="35.142955" lon="-84.843984"><ele>272.8</ele><time>2026-07-24T17:07:15Z</time></trkpt>
<trkpt lat="35.142947" lon="-84.843949"><ele>272.8</ele><time>2026-07-24T17:07:17Z</time></trkpt>
<trkpt lat="35.142937" lon="-84.843912"><ele>272.5</ele><time>2026-07-24T17:07:20Z</time></trkpt>
<trkpt lat="35.142927" lon="-84.843879"><ele>271.6</ele><time>2026-07-24T17:07:23Z</time></trkpt>
<trkpt lat="35.142921" lon="-84.843845"><ele>272.5</ele><time>2026-07-24T17:07:25Z</time></trkpt>
<trkpt lat="35.142925" lon="-84.843797"><ele>273.4</ele><time>2026-07-24T17:07:28Z</time></trkpt>
<trkpt lat="35.142918" lon="-84.843757"><ele>273.4</ele><time>2026-07-24T17:07:31Z</time></trkpt>
<trkpt lat="35.142907" lon="-84.84372"><ele>273.7</ele><time>2026-07-24T17:07:34Z</time></trkpt>
<trkpt lat="35.142914" lon="-84.843669"><ele>273.7</ele><time>2026-07-24T17:07:37Z</time></trkpt>
<trkpt lat="35.142913" lon="-84.84363"><ele>274.0</ele><time>2026-07-24T17:07:39Z</time></trkpt>
<trkpt lat="35.142914" lon="-84.843593"><ele>274.0</ele><time>2026-07-24T17:07:41Z</time></trkpt>
<trkpt lat="35.14293" lon="-84.843563"><ele>272.8</ele><time>2026-07-24T17:07:44Z</time></trkpt>
<trkpt lat="35.142958" lon="-84.843548"><ele>272.8</ele><time>2026-07-24T17:07:46Z</time></trkpt>
<trkpt lat="35.142989" lon="-84.84352"><ele>272.5</ele><time>2026-07-24T17:07:49Z</time></trkpt>
<trkpt lat="35.143021" lon="-84.843494"><ele>271.9</ele><time>2026-07-24T17:07:52Z</time></trkpt>
<trkpt lat="35.14306" lon="-84.843483"><ele>272.8</ele><time>2026-07-24T17:07:55Z</time></trkpt>
<trkpt lat="35.143099" lon="-84.843474"><ele>272.2</ele><time>2026-07-24T17:07:58Z</time></trkpt>
<trkpt lat="35.143127" lon="-84.843466"><ele>272.2</ele><time>2026-07-24T17:08:00Z</time></trkpt>
<trkpt lat="35.143155" lon="-84.843454"><ele>272.5</ele><time>2026-07-24T17:08:02Z</time></trkpt>
<trkpt lat="35.143191" lon="-84.843438"><ele>272.8</ele><time>2026-07-24T17:08:05Z</time></trkpt>
<trkpt lat="35.143225" lon="-84.843421"><ele>272.8</ele><time>2026-07-24T17:08:08Z</time></trkpt>
<trkpt lat="35.143262" lon="-84.84341"><ele>272.8</ele><time>2026-07-24T17:08:11Z</time></trkpt>
<trkpt lat="35.143289" lon="-84.843398"><ele>273.1</ele><time>2026-07-24T17:08:13Z</time></trkpt>
<trkpt lat="35.143315" lon="-84.843384"><ele>273.7</ele><time>2026-07-24T17:08:15Z</time></trkpt>
<trkpt lat="35.143342" lon="-84.843376"><ele>274.0</ele><time>2026-07-24T17:08:17Z</time></trkpt>
<trkpt lat="35.143374" lon="-84.843368"><ele>273.7</ele><time>2026-07-24T17:08:20Z</time></trkpt>
<trkpt lat="35.143403" lon="-84.843372"><ele>273.4</ele><time>2026-07-24T17:08:23Z</time></trkpt>
<trkpt lat="35.143439" lon="-84.843385"><ele>273.4</ele><time>2026-07-24T17:08:26Z</time></trkpt>
<trkpt lat="35.143467" lon="-84.843408"><ele>273.4</ele><time>2026-07-24T17:08:29Z</time></trkpt>
<trkpt lat="35.143488" lon="-84.843438"><ele>273.4</ele><time>2026-07-24T17:08:32Z</time></trkpt>
<trkpt lat="35.143503" lon="-84.843475"><ele>273.1</ele><time>2026-07-24T17:08:35Z</time></trkpt>
<trkpt lat="35.143516" lon="-84.843519"><ele>272.8</ele><time>2026-07-24T17:08:38Z</time></trkpt>
<trkpt lat="35.143529" lon="-84.843551"><ele>271.9</ele><time>2026-07-24T17:08:41Z</time></trkpt>
<trkpt lat="35.14354" lon="-84.843591"><ele>271.9</ele><time>2026-07-24T17:08:44Z</time></trkpt>
<trkpt lat="35.143556" lon="-84.843629"><ele>271.9</ele><time>2026-07-24T17:08:47Z</time></trkpt>
<trkpt lat="35.143575" lon="-84.843666"><ele>271.3</ele><time>2026-07-24T17:08:50Z</time></trkpt>
<trkpt lat="35.14359" lon="-84.843706"><ele>271.6</ele><time>2026-07-24T17:08:53Z</time></trkpt>
<trkpt lat="35.143602" lon="-84.843747"><ele>271.3</ele><time>2026-07-24T17:08:56Z</time></trkpt>
<trkpt lat="35.143615" lon="-84.843778"><ele>270.1</ele><time>2026-07-24T17:08:59Z</time></trkpt>
<trkpt lat="35.143633" lon="-84.843815"><ele>269.1</ele><time>2026-07-24T17:09:02Z</time></trkpt>
<trkpt lat="35.143648" lon="-84.843847"><ele>269.1</ele><time>2026-07-24T17:09:04Z</time></trkpt>
<trkpt lat="35.143663" lon="-84.843886"><ele>268.8</ele><time>2026-07-24T17:09:07Z</time></trkpt>
<trkpt lat="35.143678" lon="-84.843924"><ele>267.6</ele><time>2026-07-24T17:09:10Z</time></trkpt>
<trkpt lat="35.143691" lon="-84.843964"><ele>267.9</ele><time>2026-07-24T17:09:13Z</time></trkpt>
<trkpt lat="35.143707" lon="-84.844004"><ele>268.2</ele><time>2026-07-24T17:09:16Z</time></trkpt>
<trkpt lat="35.143726" lon="-84.844044"><ele>268.5</ele><time>2026-07-24T17:09:19Z</time></trkpt>
<trkpt lat="35.143733" lon="-84.844077"><ele>270.1</ele><time>2026-07-24T17:09:21Z</time></trkpt>
<trkpt lat="35.143748" lon="-84.844121"><ele>270.1</ele><time>2026-07-24T17:09:24Z</time></trkpt>
<trkpt lat="35.143762" lon="-84.844165"><ele>270.7</ele><time>2026-07-24T17:09:27Z</time></trkpt>
<trkpt lat="35.143779" lon="-84.844206"><ele>271.3</ele><time>2026-07-24T17:09:30Z</time></trkpt>
<trkpt lat="35.143798" lon="-84.844246"><ele>271.9</ele><time>2026-07-24T17:09:33Z</time></trkpt>
<trkpt lat="35.143811" lon="-84.84429"><ele>273.4</ele><time>2026-07-24T17:09:36Z</time></trkpt>
<trkpt lat="35.143831" lon="-84.844341"><ele>274.0</ele><time>2026-07-24T17:09:39Z</time></trkpt>
<trkpt lat="35.143847" lon="-84.844382"><ele>274.9</ele><time>2026-07-24T17:09:41Z</time></trkpt>
<trkpt lat="35.143882" lon="-84.844413"><ele>275.8</ele><time>2026-07-24T17:09:44Z</time></trkpt>
<trkpt lat="35.143911" lon="-84.844428"><ele>275.2</ele><time>2026-07-24T17:09:46Z</time></trkpt>
<trkpt lat="35.143939" lon="-84.844445"><ele>276.5</ele><time>2026-07-24T17:09:48Z</time></trkpt>
<trkpt lat="35.143969" lon="-84.844472"><ele>275.8</ele><time>2026-07-24T17:09:51Z</time></trkpt>
<trkpt lat="35.143999" lon="-84.844488"><ele>274.9</ele><time>2026-07-24T17:09:54Z</time></trkpt>
<trkpt lat="35.144029" lon="-84.844513"><ele>274.3</ele><time>2026-07-24T17:09:57Z</time></trkpt>
<trkpt lat="35.144049" lon="-84.844539"><ele>274.9</ele><time>2026-07-24T17:10:00Z</time></trkpt>
<trkpt lat="35.144078" lon="-84.844571"><ele>274.6</ele><time>2026-07-24T17:10:03Z</time></trkpt>
<trkpt lat="35.1441" lon="-84.844595"><ele>274.9</ele><time>2026-07-24T17:10:05Z</time></trkpt>
<trkpt lat="35.14411" lon="-84.844646"><ele>276.1</ele><time>2026-07-24T17:10:07Z</time></trkpt>
<trkpt lat="35.144116" lon="-84.844693"><ele>275.8</ele><time>2026-07-24T17:10:10Z</time></trkpt>
<trkpt lat="35.144131" lon="-84.844725"><ele>275.5</ele><time>2026-07-24T17:10:13Z</time></trkpt>
<trkpt lat="35.144151" lon="-84.844765"><ele>275.2</ele><time>2026-07-24T17:10:16Z</time></trkpt>
<trkpt lat="35.144156" lon="-84.844808"><ele>273.7</ele><time>2026-07-24T17:10:19Z</time></trkpt>
<trkpt lat="35.14416" lon="-84.844846"><ele>272.5</ele><time>2026-07-24T17:10:22Z</time></trkpt>
<trkpt lat="35.144149" lon="-84.844885"><ele>272.5</ele><time>2026-07-24T17:10:25Z</time></trkpt>
<trkpt lat="35.144122" lon="-84.844901"><ele>272.5</ele><time>2026-07-24T17:10:27Z</time></trkpt>
<trkpt lat="35.144093" lon="-84.84491"><ele>272.2</ele><time>2026-07-24T17:10:29Z</time></trkpt>
<trkpt lat="35.144057" lon="-84.844923"><ele>273.1</ele><time>2026-07-24T17:10:32Z</time></trkpt>
<trkpt lat="35.144021" lon="-84.84494"><ele>271.6</ele><time>2026-07-24T17:10:35Z</time></trkpt>
<trkpt lat="35.143985" lon="-84.844944"><ele>272.2</ele><time>2026-07-24T17:10:37Z</time></trkpt>
<trkpt lat="35.143956" lon="-84.844959"><ele>273.7</ele><time>2026-07-24T17:10:40Z</time></trkpt>
<trkpt lat="35.143915" lon="-84.844962"><ele>276.1</ele><time>2026-07-24T17:10:43Z</time></trkpt>
<trkpt lat="35.143877" lon="-84.844968"><ele>274.3</ele><time>2026-07-24T17:10:46Z</time></trkpt>
<trkpt lat="35.14384" lon="-84.844975"><ele>275.2</ele><time>2026-07-24T17:10:49Z</time></trkpt>
<trkpt lat="35.143806" lon="-84.844982"><ele>274.9</ele><time>2026-07-24T17:10:52Z</time></trkpt>
<trkpt lat="35.143768" lon="-84.844989"><ele>274.3</ele><time>2026-07-24T17:10:55Z</time></trkpt>
<trkpt lat="35.143736" lon="-84.845005"><ele>275.5</ele><time>2026-07-24T17:10:58Z</time></trkpt>
<trkpt lat="35.143699" lon="-84.845007"><ele>274.9</ele><time>2026-07-24T17:11:01Z</time></trkpt>
<trkpt lat="35.143663" lon="-84.845012"><ele>274.0</ele><time>2026-07-24T17:11:04Z</time></trkpt>
<trkpt lat="35.143631" lon="-84.845023"><ele>273.7</ele><time>2026-07-24T17:11:07Z</time></trkpt>
<trkpt lat="35.143601" lon="-84.845027"><ele>274.9</ele><time>2026-07-24T17:11:09Z</time></trkpt>
<trkpt lat="35.143573" lon="-84.845024"><ele>274.0</ele><time>2026-07-24T17:11:11Z</time></trkpt>
<trkpt lat="35.143539" lon="-84.845036"><ele>273.1</ele><time>2026-07-24T17:11:14Z</time></trkpt>
<trkpt lat="35.143503" lon="-84.845045"><ele>274.0</ele><time>2026-07-24T17:11:17Z</time></trkpt>
<trkpt lat="35.143464" lon="-84.845052"><ele>272.8</ele><time>2026-07-24T17:11:20Z</time></trkpt>
<trkpt lat="35.143431" lon="-84.845055"><ele>273.7</ele><time>2026-07-24T17:11:22Z</time></trkpt>
<trkpt lat="35.14341" lon="-84.845084"><ele>271.9</ele><time>2026-07-24T17:11:24Z</time></trkpt>
<trkpt lat="35.143395" lon="-84.84512"><ele>269.7</ele><time>2026-07-24T17:11:27Z</time></trkpt>
<trkpt lat="35.143372" lon="-84.845149"><ele>270.1</ele><time>2026-07-24T17:11:30Z</time></trkpt>
<trkpt lat="35.143357" lon="-84.845183"><ele>268.8</ele><time>2026-07-24T17:11:33Z</time></trkpt>
<trkpt lat="35.143326" lon="-84.845204"><ele>269.1</ele><time>2026-07-24T17:11:36Z</time></trkpt>
<trkpt lat="35.143292" lon="-84.845215"><ele>268.2</ele><time>2026-07-24T17:11:39Z</time></trkpt>
<trkpt lat="35.143253" lon="-84.845198"><ele>269.7</ele><time>2026-07-24T17:11:42Z</time></trkpt>
<trkpt lat="35.143223" lon="-84.845177"><ele>268.2</ele><time>2026-07-24T17:11:44Z</time></trkpt>
<trkpt lat="35.143207" lon="-84.845143"><ele>268.5</ele><time>2026-07-24T17:11:46Z</time></trkpt>
<trkpt lat="35.143182" lon="-84.84511"><ele>271.3</ele><time>2026-07-24T17:11:50Z</time></trkpt>
<trkpt lat="35.143166" lon="-84.845068"><ele>271.3</ele><time>2026-07-24T17:11:53Z</time></trkpt>
<trkpt lat="35.143149" lon="-84.845028"><ele>270.7</ele><time>2026-07-24T17:11:56Z</time></trkpt>
<trkpt lat="35.143147" lon="-84.844989"><ele>270.4</ele><time>2026-07-24T17:11:59Z</time></trkpt>
<trkpt lat="35.143148" lon="-84.844952"><ele>273.1</ele><time>2026-07-24T17:12:01Z</time></trkpt>
<trkpt lat="35.143148" lon="-84.844903"><ele>273.7</ele><time>2026-07-24T17:12:04Z</time></trkpt>
<trkpt lat="35.143143" lon="-84.844859"><ele>273.7</ele><time>2026-07-24T17:12:07Z</time></trkpt>
<trkpt lat="35.143133" lon="-84.844816"><ele>274.0</ele><time>2026-07-24T17:12:10Z</time></trkpt>
<trkpt lat="35.143117" lon="-84.844775"><ele>273.4</ele><time>2026-07-24T17:12:13Z</time></trkpt>
<trkpt lat="35.143113" lon="-84.84473"><ele>274.0</ele><time>2026-07-24T17:12:16Z</time></trkpt>
<trkpt lat="35.143109" lon="-84.844693"><ele>274.0</ele><time>2026-07-24T17:12:18Z</time></trkpt>
<trkpt lat="35.143102" lon="-84.84465"><ele>274.0</ele><time>2026-07-24T17:12:21Z</time></trkpt>
<trkpt lat="35.143096" lon="-84.844617"><ele>274.3</ele><time>2026-07-24T17:12:23Z</time></trkpt>
<trkpt lat="35.143094" lon="-84.84458"><ele>274.3</ele><time>2026-07-24T17:12:25Z</time></trkpt>
<trkpt lat="35.143082" lon="-84.844544"><ele>274.0</ele><time>2026-07-24T17:12:28Z</time></trkpt>
<trkpt lat="35.143072" lon="-84.844499"><ele>275.2</ele><time>2026-07-24T17:12:31Z</time></trkpt>
<trkpt lat="35.143062" lon="-84.844454"><ele>274.6</ele><time>2026-07-24T17:12:34Z</time></trkpt>
<trkpt lat="35.143057" lon="-84.844412"><ele>274.6</ele><time>2026-07-24T17:12:37Z</time></trkpt>
<trkpt lat="35.143049" lon="-84.844373"><ele>274.6</ele><time>2026-07-24T17:12:40Z</time></trkpt>
<trkpt lat="35.143037" lon="-84.844331"><ele>274.6</ele><time>2026-07-24T17:12:43Z</time></trkpt>
<trkpt lat="35.14303" lon="-84.844285"><ele>275.8</ele><time>2026-07-24T17:12:46Z</time></trkpt>
<trkpt lat="35.143024" lon="-84.844243"><ele>275.2</ele><time>2026-07-24T17:12:49Z</time></trkpt>
<trkpt lat="35.143014" lon="-84.844207"><ele>274.6</ele><time>2026-07-24T17:12:52Z</time></trkpt>
<trkpt lat="35.143005" lon="-84.844165"><ele>274.6</ele><time>2026-07-24T17:12:55Z</time></trkpt>
<trkpt lat="35.142996" lon="-84.844126"><ele>274.3</ele><time>2026-07-24T17:12:58Z</time></trkpt>
<trkpt lat="35.142988" lon="-84.844086"><ele>273.4</ele><time>2026-07-24T17:13:01Z</time></trkpt>
<trkpt lat="35.142979" lon="-84.844046"><ele>272.5</ele><time>2026-07-24T17:13:04Z</time></trkpt>
<trkpt lat="35.142963" lon="-84.844002"><ele>272.2</ele><time>2026-07-24T17:13:07Z</time></trkpt>
<trkpt lat="35.142957" lon="-84.843966"><ele>272.2</ele><time>2026-07-24T17:13:09Z</time></trkpt>
<trkpt lat="35.142954" lon="-84.843924"><ele>272.8</ele><time>2026-07-24T17:13:12Z</time></trkpt>
<trkpt lat="35.142945" lon="-84.843886"><ele>272.8</ele><time>2026-07-24T17:13:14Z</time></trkpt>
<trkpt lat="35.142936" lon="-84.843848"><ele>273.4</ele><time>2026-07-24T17:13:17Z</time></trkpt>
<trkpt lat="35.14293" lon="-84.843813"><ele>273.7</ele><time>2026-07-24T17:13:19Z</time></trkpt>
<trkpt lat="35.142923" lon="-84.843772"><ele>273.1</ele><time>2026-07-24T17:13:22Z</time></trkpt>
<trkpt lat="35.142908" lon="-84.843737"><ele>273.4</ele><time>2026-07-24T17:13:25Z</time></trkpt>
<trkpt lat="35.142904" lon="-84.843702"><ele>273.1</ele><time>2026-07-24T17:13:27Z</time></trkpt>
<trkpt lat="35.142909" lon="-84.843669"><ele>271.9</ele><time>2026-07-24T17:13:30Z</time></trkpt>
<trkpt lat="35.14292" lon="-84.84363"><ele>272.5</ele><time>2026-07-24T17:13:33Z</time></trkpt>
<trkpt lat="35.142927" lon="-84.843588"><ele>272.8</ele><time>2026-07-24T17:13:36Z</time></trkpt>
<trkpt lat="35.142952" lon="-84.843562"><ele>273.7</ele><time>2026-07-24T17:13:38Z</time></trkpt>
<trkpt lat="35.142984" lon="-84.843538"><ele>274.0</ele><time>2026-07-24T17:13:41Z</time></trkpt>
<trkpt lat="35.143014" lon="-84.843522"><ele>273.7</ele><time>2026-07-24T17:13:44Z</time></trkpt>
<trkpt lat="35.143047" lon="-84.843501"><ele>273.7</ele><time>2026-07-24T17:13:47Z</time></trkpt>
<trkpt lat="35.143075" lon="-84.843485"><ele>273.7</ele><time>2026-07-24T17:13:50Z</time></trkpt>
<trkpt lat="35.143105" lon="-84.843472"><ele>273.4</ele><time>2026-07-24T17:13:53Z</time></trkpt>
<trkpt lat="35.143137" lon="-84.843453"><ele>273.1</ele><time>2026-07-24T17:13:56Z</time></trkpt>
<trkpt lat="35.143169" lon="-84.843435"><ele>273.4</ele><time>2026-07-24T17:13:59Z</time></trkpt>
<trkpt lat="35.143204" lon="-84.843421"><ele>273.7</ele><time>2026-07-24T17:14:02Z</time></trkpt>
<trkpt lat="35.143237" lon="-84.843406"><ele>273.4</ele><time>2026-07-24T17:14:05Z</time></trkpt>
<trkpt lat="35.143274" lon="-84.843388"><ele>273.1</ele><time>2026-07-24T17:14:08Z</time></trkpt>
<trkpt lat="35.143313" lon="-84.843374"><ele>273.1</ele><time>2026-07-24T17:14:11Z</time></trkpt>
<trkpt lat="35.143346" lon="-84.843368"><ele>272.5</ele><time>2026-07-24T17:14:14Z</time></trkpt>
<trkpt lat="35.14338" lon="-84.843369"><ele>273.1</ele><time>2026-07-24T17:14:17Z</time></trkpt>
<trkpt lat="35.143417" lon="-84.843385"><ele>272.8</ele><time>2026-07-24T17:14:20Z</time></trkpt>
<trkpt lat="35.143449" lon="-84.843415"><ele>273.1</ele><time>2026-07-24T17:14:23Z</time></trkpt>
<trkpt lat="35.143472" lon="-84.843454"><ele>273.4</ele><time>2026-07-24T17:14:26Z</time></trkpt>
<trkpt lat="35.143491" lon="-84.843495"><ele>273.7</ele><time>2026-07-24T17:14:29Z</time></trkpt>
<trkpt lat="35.143508" lon="-84.843535"><ele>273.7</ele><time>2026-07-24T17:14:32Z</time></trkpt>
<trkpt lat="35.143523" lon="-84.843567"><ele>273.1</ele><time>2026-07-24T17:14:35Z</time></trkpt>
<trkpt lat="35.143535" lon="-84.843606"><ele>272.8</ele><time>2026-07-24T17:14:38Z</time></trkpt>
<trkpt lat="35.143552" lon="-84.843643"><ele>271.9</ele><time>2026-07-24T17:14:41Z</time></trkpt>
<trkpt lat="35.14357" lon="-84.843686"><ele>272.2</ele><time>2026-07-24T17:14:44Z</time></trkpt>
<trkpt lat="35.143583" lon="-84.843723"><ele>271.9</ele><time>2026-07-24T17:14:47Z</time></trkpt>
<trkpt lat="35.143593" lon="-84.843765"><ele>271.3</ele><time>2026-07-24T17:14:50Z</time></trkpt>
<trkpt lat="35.143605" lon="-84.843796"><ele>271.3</ele><time>2026-07-24T17:14:52Z</time></trkpt>
<trkpt lat="35.143623" lon="-84.843834"><ele>270.4</ele><time>2026-07-24T17:14:55Z</time></trkpt>
<trkpt lat="35.14364" lon="-84.843877"><ele>271.0</ele><time>2026-07-24T17:14:58Z</time></trkpt>
<trkpt lat="35.143652" lon="-84.843906"><ele>270.1</ele><time>2026-07-24T17:15:01Z</time></trkpt>
<trkpt lat="35.143669" lon="-84.843937"><ele>268.5</ele><time>2026-07-24T17:15:04Z</time></trkpt>
<trkpt lat="35.143688" lon="-84.843968"><ele>267.9</ele><time>2026-07-24T17:15:07Z</time></trkpt>
<trkpt lat="35.143704" lon="-84.84401"><ele>268.2</ele><time>2026-07-24T17:15:10Z</time></trkpt>
<trkpt lat="35.143715" lon="-84.844047"><ele>267.9</ele><time>2026-07-24T17:15:13Z</time></trkpt>
<trkpt lat="35.143729" lon="-84.844081"><ele>266.4</ele><time>2026-07-24T17:15:16Z</time></trkpt>
<trkpt lat="35.143743" lon="-84.844115"><ele>267.0</ele><time>2026-07-24T17:15:19Z</time></trkpt>
<trkpt lat="35.143759" lon="-84.84415"><ele>268.2</ele><time>2026-07-24T17:15:22Z</time></trkpt>
<trkpt lat="35.143771" lon="-84.844181"><ele>268.8</ele><time>2026-07-24T17:15:24Z</time></trkpt>
<trkpt lat="35.143786" lon="-84.844222"><ele>269.4</ele><time>2026-07-24T17:15:27Z</time></trkpt>
<trkpt lat="35.143802" lon="-84.844257"><ele>271.9</ele><time>2026-07-24T17:15:30Z</time></trkpt>
<trkpt lat="35.143813" lon="-84.844301"><ele>272.5</ele><time>2026-07-24T17:15:33Z</time></trkpt>
<trkpt lat="35.143823" lon="-84.84434"><ele>272.5</ele><time>2026-07-24T17:15:35Z</time></trkpt>
<trkpt lat="35.143844" lon="-84.844383"><ele>274.3</ele><time>2026-07-24T17:15:37Z</time></trkpt>
<trkpt lat="35.143866" lon="-84.84441"><ele>274.9</ele><time>2026-07-24T17:15:39Z</time></trkpt>
<trkpt lat="35.143897" lon="-84.844435"><ele>274.9</ele><time>2026-07-24T17:15:42Z</time></trkpt>
<trkpt lat="35.143921" lon="-84.844463"><ele>275.8</ele><time>2026-07-24T17:15:44Z</time></trkpt>
<trkpt lat="35.143951" lon="-84.844489"><ele>275.5</ele><time>2026-07-24T17:15:47Z</time></trkpt>
<trkpt lat="35.143992" lon="-84.844495"><ele>274.3</ele><time>2026-07-24T17:15:50Z</time></trkpt>
<trkpt lat="35.144021" lon="-84.844514"><ele>274.0</ele><time>2026-07-24T17:15:53Z</time></trkpt>
<trkpt lat="35.144045" lon="-84.844539"><ele>274.6</ele><time>2026-07-24T17:15:56Z</time></trkpt>
<trkpt lat="35.144076" lon="-84.844562"><ele>273.7</ele><time>2026-07-24T17:15:59Z</time></trkpt>
<trkpt lat="35.144089" lon="-84.844592"><ele>272.8</ele><time>2026-07-24T17:16:01Z</time></trkpt>
<trkpt lat="35.144095" lon="-84.844643"><ele>274.9</ele><time>2026-07-24T17:16:03Z</time></trkpt>
<trkpt lat="35.144098" lon="-84.84468"><ele>274.3</ele><time>2026-07-24T17:16:06Z</time></trkpt>
<trkpt lat="35.144117" lon="-84.844711"><ele>273.4</ele><time>2026-07-24T17:16:09Z</time></trkpt>
<trkpt lat="35.144132" lon="-84.844749"><ele>271.9</ele><time>2026-07-24T17:16:12Z</time></trkpt>
<trkpt lat="35.144152" lon="-84.844782"><ele>271.3</ele><time>2026-07-24T17:16:15Z</time></trkpt>
<trkpt lat="35.14416" lon="-84.844819"><ele>273.4</ele><time>2026-07-24T17:16:18Z</time></trkpt>
<trkpt lat="35.144144" lon="-84.844867"><ele>273.4</ele><time>2026-07-24T17:16:21Z</time></trkpt>
<trkpt lat="35.144114" lon="-84.844894"><ele>274.0</ele><time>2026-07-24T17:16:24Z</time></trkpt>
<trkpt lat="35.144082" lon="-84.844896"><ele>274.3</ele><time>2026-07-24T17:16:26Z</time></trkpt>
<trkpt lat="35.144047" lon="-84.844914"><ele>275.8</ele><time>2026-07-24T17:16:29Z</time></trkpt>
<trkpt lat="35.144019" lon="-84.844926"><ele>276.1</ele><time>2026-07-24T17:16:31Z</time></trkpt>
<trkpt lat="35.143984" lon="-84.844933"><ele>275.5</ele><time>2026-07-24T17:16:33Z</time></trkpt>
<trkpt lat="35.143945" lon="-84.84494"><ele>274.6</ele><time>2026-07-24T17:16:36Z</time></trkpt>
<trkpt lat="35.14391" lon="-84.844949"><ele>274.3</ele><time>2026-07-24T17:16:39Z</time></trkpt>
<trkpt lat="35.143873" lon="-84.844949"><ele>275.2</ele><time>2026-07-24T17:16:42Z</time></trkpt>
<trkpt lat="35.143841" lon="-84.844966"><ele>277.4</ele><time>2026-07-24T17:16:45Z</time></trkpt>
<trkpt lat="35.143813" lon="-84.844983"><ele>274.9</ele><time>2026-07-24T17:16:48Z</time></trkpt>
<trkpt lat="35.143783" lon="-84.844975"><ele>276.8</ele><time>2026-07-24T17:16:50Z</time></trkpt>
<trkpt lat="35.143749" lon="-84.844982"><ele>276.8</ele><time>2026-07-24T17:16:53Z</time></trkpt>
<trkpt lat="35.14372" lon="-84.844985"><ele>276.8</ele><time>2026-07-24T17:16:55Z</time></trkpt>
<trkpt lat="35.143684" lon="-84.84499"><ele>274.9</ele><time>2026-07-24T17:16:58Z</time></trkpt>
<trkpt lat="35.143646" lon="-84.845008"><ele>274.3</ele><time>2026-07-24T17:17:02Z</time></trkpt>
<trkpt lat="35.143624" lon="-84.845035"><ele>275.5</ele><time>2026-07-24T17:17:05Z</time></trkpt>
<trkpt lat="35.143588" lon="-84.845059"><ele>276.1</ele><time>2026-07-24T17:17:08Z</time></trkpt>
<trkpt lat="35.143554" lon="-84.845056"><ele>274.9</ele><time>2026-07-24T17:17:10Z</time></trkpt>
<trkpt lat="35.143525" lon="-84.845053"><ele>273.7</ele><time>2026-07-24T17:17:12Z</time></trkpt>
<trkpt lat="35.143496" lon="-84.845058"><ele>274.6</ele><time>2026-07-24T17:17:14Z</time></trkpt>
<trkpt lat="35.143461" lon="-84.845053"><ele>274.6</ele><time>2026-07-24T17:17:17Z</time></trkpt>
<trkpt lat="35.143426" lon="-84.845067"><ele>274.9</ele><time>2026-07-24T17:17:20Z</time></trkpt>
<trkpt lat="35.143398" lon="-84.845091"><ele>274.9</ele><time>2026-07-24T17:17:23Z</time></trkpt>
<trkpt lat="35.143386" lon="-84.845139"><ele>274.3</ele><time>2026-07-24T17:17:26Z</time></trkpt>
<trkpt lat="35.143366" lon="-84.845168"><ele>273.4</ele><time>2026-07-24T17:17:29Z</time></trkpt>
<trkpt lat="35.143339" lon="-84.845196"><ele>272.5</ele><time>2026-07-24T17:17:32Z</time></trkpt>
<trkpt lat="35.14331" lon="-84.84522"><ele>272.5</ele><time>2026-07-24T17:17:35Z</time></trkpt>
<trkpt lat="35.143272" lon="-84.845226"><ele>271.0</ele><time>2026-07-24T17:17:38Z</time></trkpt>
<trkpt lat="35.143242" lon="-84.845207"><ele>272.8</ele><time>2026-07-24T17:17:40Z</time></trkpt>
<trkpt lat="35.143223" lon="-84.845177"><ele>271.3</ele><time>2026-07-24T17:17:42Z</time></trkpt>
<trkpt lat="35.143214" lon="-84.845144"><ele>271.6</ele><time>2026-07-24T17:17:44Z</time></trkpt>
<trkpt lat="35.1432" lon="-84.845112"><ele>272.5</ele><time>2026-07-24T17:17:46Z</time></trkpt>
<trkpt lat="35.143178" lon="-84.845072"><ele>272.8</ele><time>2026-07-24T17:17:50Z</time></trkpt>
<trkpt lat="35.143172" lon="-84.845027"><ele>274.3</ele><time>2026-07-24T17:17:52Z</time></trkpt>
<trkpt lat="35.143175" lon="-84.844993"><ele>275.2</ele><time>2026-07-24T17:17:54Z</time></trkpt>
<trkpt lat="35.143173" lon="-84.844943"><ele>275.8</ele><time>2026-07-24T17:17:57Z</time></trkpt>
<trkpt lat="35.143162" lon="-84.844912"><ele>275.5</ele><time>2026-07-24T17:17:59Z</time></trkpt>
<trkpt lat="35.143149" lon="-84.844872"><ele>274.9</ele><time>2026-07-24T17:18:02Z</time></trkpt>
<trkpt lat="35.143133" lon="-84.844832"><ele>274.6</ele><time>2026-07-24T17:18:05Z</time></trkpt>
<trkpt lat="35.143134" lon="-84.844792"><ele>275.2</ele><time>2026-07-24T17:18:08Z</time></trkpt>
<trkpt lat="35.143127" lon="-84.844755"><ele>274.0</ele><time>2026-07-24T17:18:11Z</time></trkpt>
<trkpt lat="35.143114" lon="-84.844715"><ele>273.7</ele><time>2026-07-24T17:18:14Z</time></trkpt>
<trkpt lat="35.143111" lon="-84.844677"><ele>274.3</ele><time>2026-07-24T17:18:16Z</time></trkpt>
<trkpt lat="35.143105" lon="-84.844643"><ele>274.6</ele><time>2026-07-24T17:18:18Z</time></trkpt>
<trkpt lat="35.143099" lon="-84.84461"><ele>274.9</ele><time>2026-07-24T17:18:20Z</time></trkpt>
<trkpt lat="35.143099" lon="-84.844568"><ele>274.9</ele><time>2026-07-24T17:18:23Z</time></trkpt>
<trkpt lat="35.143079" lon="-84.844533"><ele>274.3</ele><time>2026-07-24T17:18:26Z</time></trkpt>
<trkpt lat="35.143068" lon="-84.844498"><ele>274.6</ele><time>2026-07-24T17:18:29Z</time></trkpt>
<trkpt lat="35.143056" lon="-84.844459"><ele>272.8</ele><time>2026-07-24T17:18:32Z</time></trkpt>
<trkpt lat="35.14305" lon="-84.844421"><ele>272.8</ele><time>2026-07-24T17:18:35Z</time></trkpt>
<trkpt lat="35.14304" lon="-84.844378"><ele>273.1</ele><time>2026-07-24T17:18:38Z</time></trkpt>
<trkpt lat="35.143034" lon="-84.844345"><ele>273.7</ele><time>2026-07-24T17:18:40Z</time></trkpt>
<trkpt lat="35.143032" lon="-84.844296"><ele>274.6</ele><time>2026-07-24T17:18:43Z</time></trkpt>
<trkpt lat="35.143024" lon="-84.844253"><ele>274.0</ele><time>2026-07-24T17:18:46Z</time></trkpt>
<trkpt lat="35.143013" lon="-84.844207"><ele>274.6</ele><time>2026-07-24T17:18:49Z</time></trkpt>
<trkpt lat="35.143003" lon="-84.844166"><ele>274.6</ele><time>2026-07-24T17:18:52Z</time></trkpt>
<trkpt lat="35.142995" lon="-84.844132"><ele>274.3</ele><time>2026-07-24T17:18:54Z</time></trkpt>
<trkpt lat="35.14299" lon="-84.844097"><ele>274.3</ele><time>2026-07-24T17:18:56Z</time></trkpt>
<trkpt lat="35.142976" lon="-84.844056"><ele>273.4</ele><time>2026-07-24T17:18:59Z</time></trkpt>
<trkpt lat="35.142962" lon="-84.844024"><ele>273.1</ele><time>2026-07-24T17:19:01Z</time></trkpt>
<trkpt lat="35.142955" lon="-84.84399"><ele>273.4</ele><time>2026-07-24T17:19:03Z</time></trkpt>
<trkpt lat="35.142954" lon="-84.843942"><ele>274.6</ele><time>2026-07-24T17:19:06Z</time></trkpt>
<trkpt lat="35.142951" lon="-84.843904"><ele>274.3</ele><time>2026-07-24T17:19:09Z</time></trkpt>
<trkpt lat="35.142937" lon="-84.843872"><ele>274.0</ele><time>2026-07-24T17:19:12Z</time></trkpt>
<trkpt lat="35.142925" lon="-84.843834"><ele>275.2</ele><time>2026-07-24T17:19:15Z</time></trkpt>
<trkpt lat="35.142922" lon="-84.843791"><ele>274.6</ele><time>2026-07-24T17:19:19Z</time></trkpt>
<trkpt lat="35.142916" lon="-84.843756"><ele>274.3</ele><time>2026-07-24T17:19:21Z</time></trkpt>
<trkpt lat="35.142914" lon="-84.843711"><ele>274.3</ele><time>2026-07-24T17:19:24Z</time></trkpt>
<trkpt lat="35.142916" lon="-84.843669"><ele>274.0</ele><time>2026-07-24T17:19:27Z</time></trkpt>
<trkpt lat="35.142926" lon="-84.843631"><ele>274.0</ele><time>2026-07-24T17:19:30Z</time></trkpt>
<trkpt lat="35.142943" lon="-84.843592"><ele>273.7</ele><time>2026-07-24T17:19:33Z</time></trkpt>
<trkpt lat="35.142957" lon="-84.843563"><ele>273.1</ele><time>2026-07-24T17:19:35Z</time></trkpt>
<trkpt lat="35.14298" lon="-84.843544"><ele>272.2</ele><time>2026-07-24T17:19:37Z</time></trkpt>
<trkpt lat="35.143015" lon="-84.843524"><ele>272.8</ele><time>2026-07-24T17:19:40Z</time></trkpt>
<trkpt lat="35.143046" lon="-84.843509"><ele>272.5</ele><time>2026-07-24T17:19:43Z</time></trkpt>
<trkpt lat="35.143072" lon="-84.843496"><ele>272.8</ele><time>2026-07-24T17:19:45Z</time></trkpt>
<trkpt lat="35.143106" lon="-84.843477"><ele>272.8</ele><time>2026-07-24T17:19:48Z</time></trkpt>
<trkpt lat="35.143143" lon="-84.843464"><ele>273.4</ele><time>2026-07-24T17:19:51Z</time></trkpt>
<trkpt lat="35.143173" lon="-84.843445"><ele>273.1</ele><time>2026-07-24T17:19:54Z</time></trkpt>
<trkpt lat="35.143206" lon="-84.843423"><ele>272.5</ele><time>2026-07-24T17:19:57Z</time></trkpt>
<trkpt lat="35.143241" lon="-84.843407"><ele>273.4</ele><time>2026-07-24T17:20:00Z</time></trkpt>
<trkpt lat="35.143271" lon="-84.843388"><ele>273.7</ele><time>2026-07-24T17:20:03Z</time></trkpt>
<trkpt lat="35.143304" lon="-84.843379"><ele>273.7</ele><time>2026-07-24T17:20:06Z</time></trkpt>
<trkpt lat="35.143342" lon="-84.843369"><ele>274.0</ele><time>2026-07-24T17:20:09Z</time></trkpt>
<trkpt lat="35.143384" lon="-84.843378"><ele>274.0</ele><time>2026-07-24T17:20:12Z</time></trkpt>
<trkpt lat="35.143414" lon="-84.843396"><ele>274.6</ele><time>2026-07-24T17:20:14Z</time></trkpt>
<trkpt lat="35.143445" lon="-84.843425"><ele>274.9</ele><time>2026-07-24T17:20:17Z</time></trkpt>
<trkpt lat="35.143467" lon="-84.84346"><ele>275.5</ele><time>2026-07-24T17:20:19Z</time></trkpt>
<trkpt lat="35.143481" lon="-84.843494"><ele>275.5</ele><time>2026-07-24T17:20:21Z</time></trkpt>
<trkpt lat="35.143498" lon="-84.843527"><ele>275.2</ele><time>2026-07-24T17:20:24Z</time></trkpt>
<trkpt lat="35.143506" lon="-84.843567"><ele>274.6</ele><time>2026-07-24T17:20:27Z</time></trkpt>
<trkpt lat="35.143519" lon="-84.843607"><ele>274.0</ele><time>2026-07-24T17:20:30Z</time></trkpt>
<trkpt lat="35.143537" lon="-84.843635"><ele>272.8</ele><time>2026-07-24T17:20:33Z</time></trkpt>
<trkpt lat="35.143555" lon="-84.843662"><ele>271.6</ele><time>2026-07-24T17:20:36Z</time></trkpt>
<trkpt lat="35.143572" lon="-84.843703"><ele>271.3</ele><time>2026-07-24T17:20:39Z</time></trkpt>
<trkpt lat="35.143587" lon="-84.843737"><ele>270.7</ele><time>2026-07-24T17:20:42Z</time></trkpt>
<trkpt lat="35.143609" lon="-84.843762"><ele>268.8</ele><time>2026-07-24T17:20:45Z</time></trkpt>
<trkpt lat="35.143629" lon="-84.843789"><ele>267.9</ele><time>2026-07-24T17:20:48Z</time></trkpt>
<trkpt lat="35.143637" lon="-84.843826"><ele>268.5</ele><time>2026-07-24T17:20:50Z</time></trkpt>
<trkpt lat="35.143645" lon="-84.843874"><ele>267.9</ele><time>2026-07-24T17:20:53Z</time></trkpt>
<trkpt lat="35.143659" lon="-84.843917"><ele>268.2</ele><time>2026-07-24T17:20:56Z</time></trkpt>
<trkpt lat="35.143671" lon="-84.843948"><ele>268.2</ele><time>2026-07-24T17:20:58Z</time></trkpt>
<trkpt lat="35.143693" lon="-84.84398"><ele>267.0</ele><time>2026-07-24T17:21:01Z</time></trkpt>
<trkpt lat="35.143713" lon="-84.844017"><ele>266.7</ele><time>2026-07-24T17:21:04Z</time></trkpt>
<trkpt lat="35.143727" lon="-84.844062"><ele>267.0</ele><time>2026-07-24T17:21:07Z</time></trkpt>
<trkpt lat="35.14374" lon="-84.844103"><ele>266.4</ele><time>2026-07-24T17:21:10Z</time></trkpt>
<trkpt lat="35.143754" lon="-84.844132"><ele>266.4</ele><time>2026-07-24T17:21:12Z</time></trkpt>
<trkpt lat="35.143771" lon="-84.844168"><ele>267.3</ele><time>2026-07-24T17:21:15Z</time></trkpt>
<trkpt lat="35.143786" lon="-84.844208"><ele>267.6</ele><time>2026-07-24T17:21:18Z</time></trkpt>
<trkpt lat="35.143804" lon="-84.844247"><ele>267.6</ele><time>2026-07-24T17:21:21Z</time></trkpt>
<trkpt lat="35.143813" lon="-84.844279"><ele>267.9</ele><time>2026-07-24T17:21:23Z</time></trkpt>
<trkpt lat="35.143824" lon="-84.844324"><ele>269.1</ele><time>2026-07-24T17:21:25Z</time></trkpt>
<trkpt lat="35.14384" lon="-84.844363"><ele>269.1</ele><time>2026-07-24T17:21:27Z</time></trkpt>
<trkpt lat="35.14386" lon="-84.84439"><ele>271.9</ele><time>2026-07-24T17:21:29Z</time></trkpt>
<trkpt lat="35.143894" lon="-84.844427"><ele>273.4</ele><time>2026-07-24T17:21:32Z</time></trkpt>
<trkpt lat="35.143922" lon="-84.844446"><ele>275.2</ele><time>2026-07-24T17:21:34Z</time></trkpt>
<trkpt lat="35.143955" lon="-84.84446"><ele>274.9</ele><time>2026-07-24T17:21:37Z</time></trkpt>
<trkpt lat="35.14399" lon="-84.844469"><ele>274.3</ele><time>2026-07-24T17:21:40Z</time></trkpt>
<trkpt lat="35.144017" lon="-84.844488"><ele>274.6</ele><time>2026-07-24T17:21:42Z</time></trkpt>
<trkpt lat="35.144042" lon="-84.844508"><ele>272.2</ele><time>2026-07-24T17:21:45Z</time></trkpt>
<trkpt lat="35.144068" lon="-84.844535"><ele>272.5</ele><time>2026-07-24T17:21:48Z</time></trkpt>
<trkpt lat="35.14408" lon="-84.844573"><ele>273.1</ele><time>2026-07-24T17:21:50Z</time></trkpt>
<trkpt lat="35.144099" lon="-84.844618"><ele>273.1</ele><time>2026-07-24T17:21:52Z</time></trkpt>
<trkpt lat="35.144103" lon="-84.844653"><ele>274.0</ele><time>2026-07-24T17:21:55Z</time></trkpt>
<trkpt lat="35.144113" lon="-84.844695"><ele>274.0</ele><time>2026-07-24T17:21:57Z</time></trkpt>
<trkpt lat="35.144129" lon="-84.844733"><ele>271.9</ele><time>2026-07-24T17:22:00Z</time></trkpt>
<trkpt lat="35.144139" lon="-84.84477"><ele>273.1</ele><time>2026-07-24T17:22:03Z</time></trkpt>
<trkpt lat="35.144149" lon="-84.844819"><ele>274.9</ele><time>2026-07-24T17:22:06Z</time></trkpt>
<trkpt lat="35.144157" lon="-84.844863"><ele>274.0</ele><time>2026-07-24T17:22:09Z</time></trkpt>
<trkpt lat="35.144124" lon="-84.844895"><ele>274.3</ele><time>2026-07-24T17:22:12Z</time></trkpt>
<trkpt lat="35.144096" lon="-84.844908"><ele>274.6</ele><time>2026-07-24T17:22:14Z</time></trkpt>
<trkpt lat="35.144066" lon="-84.844916"><ele>273.7</ele><time>2026-07-24T17:22:16Z</time></trkpt>
<trkpt lat="35.144031" lon="-84.844933"><ele>274.3</ele><time>2026-07-24T17:22:19Z</time></trkpt>
<trkpt lat="35.143994" lon="-84.84495"><ele>274.0</ele><time>2026-07-24T17:22:22Z</time></trkpt>
<trkpt lat="35.143958" lon="-84.844957"><ele>272.8</ele><time>2026-07-24T17:22:25Z</time></trkpt>
<trkpt lat="35.143913" lon="-84.844951"><ele>272.5</ele><time>2026-07-24T17:22:28Z</time></trkpt>
<trkpt lat="35.143862" lon="-84.844944"><ele>275.5</ele><time>2026-07-24T17:22:30Z</time></trkpt>
<trkpt lat="35.143823" lon="-84.844934"><ele>276.5</ele><time>2026-07-24T17:22:32Z</time></trkpt>
<trkpt lat="35.143795" lon="-84.844937"><ele>277.1</ele><time>2026-07-24T17:22:34Z</time></trkpt>
<trkpt lat="35.143763" lon="-84.844948"><ele>279.2</ele><time>2026-07-24T17:22:37Z</time></trkpt>
<trkpt lat="35.143726" lon="-84.844945"><ele>279.8</ele><time>2026-07-24T17:22:41Z</time></trkpt>
<trkpt lat="35.143691" lon="-84.84495"><ele>278.3</ele><time>2026-07-24T17:22:44Z</time></trkpt>
<trkpt lat="35.14366" lon="-84.844972"><ele>279.2</ele><time>2026-07-24T17:22:47Z</time></trkpt>
<trkpt lat="35.143634" lon="-84.845003"><ele>276.1</ele><time>2026-07-24T17:22:50Z</time></trkpt>
<trkpt lat="35.143609" lon="-84.84503"><ele>277.7</ele><time>2026-07-24T17:22:52Z</time></trkpt>
<trkpt lat="35.143587" lon="-84.845056"><ele>275.5</ele><time>2026-07-24T17:22:55Z</time></trkpt>
<trkpt lat="35.143554" lon="-84.845065"><ele>273.1</ele><time>2026-07-24T17:22:59Z</time></trkpt>
<trkpt lat="35.143525" lon="-84.845063"><ele>272.8</ele><time>2026-07-24T17:23:01Z</time></trkpt>
<trkpt lat="35.143489" lon="-84.845066"><ele>273.1</ele><time>2026-07-24T17:23:03Z</time></trkpt>
<trkpt lat="35.14345" lon="-84.845063"><ele>274.0</ele><time>2026-07-24T17:23:05Z</time></trkpt>
<trkpt lat="35.143423" lon="-84.845078"><ele>274.3</ele><time>2026-07-24T17:23:07Z</time></trkpt>
<trkpt lat="35.1434" lon="-84.845098"><ele>272.8</ele><time>2026-07-24T17:23:09Z</time></trkpt>
<trkpt lat="35.143377" lon="-84.845133"><ele>273.7</ele><time>2026-07-24T17:23:12Z</time></trkpt>
<trkpt lat="35.143359" lon="-84.845163"><ele>272.5</ele><time>2026-07-24T17:23:15Z</time></trkpt>
<trkpt lat="35.143332" lon="-84.84519"><ele>271.0</ele><time>2026-07-24T17:23:18Z</time></trkpt>
<trkpt lat="35.143303" lon="-84.845209"><ele>270.7</ele><time>2026-07-24T17:23:21Z</time></trkpt>
<trkpt lat="35.143262" lon="-84.845207"><ele>273.1</ele><time>2026-07-24T17:23:24Z</time></trkpt>
<trkpt lat="35.143226" lon="-84.84519"><ele>274.3</ele><time>2026-07-24T17:23:26Z</time></trkpt>
<trkpt lat="35.143209" lon="-84.845159"><ele>272.8</ele><time>2026-07-24T17:23:28Z</time></trkpt>
<trkpt lat="35.143194" lon="-84.845118"><ele>273.4</ele><time>2026-07-24T17:23:31Z</time></trkpt>
<trkpt lat="35.143174" lon="-84.84508"><ele>276.1</ele><time>2026-07-24T17:23:35Z</time></trkpt>
<trkpt lat="35.143176" lon="-84.84503"><ele>278.0</ele><time>2026-07-24T17:23:38Z</time></trkpt>
<trkpt lat="35.143171" lon="-84.844993"><ele>277.7</ele><time>2026-07-24T17:23:40Z</time></trkpt>
<trkpt lat="35.143164" lon="-84.844956"><ele>277.1</ele><time>2026-07-24T17:23:43Z</time></trkpt>
<trkpt lat="35.143147" lon="-84.844915"><ele>276.5</ele><time>2026-07-24T17:23:46Z</time></trkpt>
<trkpt lat="35.143142" lon="-84.844877"><ele>276.1</ele><time>2026-07-24T17:23:48Z</time></trkpt>
<trkpt lat="35.143138" lon="-84.844837"><ele>275.8</ele><time>2026-07-24T17:23:50Z</time></trkpt>
<trkpt lat="35.143124" lon="-84.844799"><ele>272.5</ele><time>2026-07-24T17:23:53Z</time></trkpt>
<trkpt lat="35.143124" lon="-84.844751"><ele>274.0</ele><time>2026-07-24T17:23:56Z</time></trkpt>
<trkpt lat="35.143121" lon="-84.844699"><ele>276.1</ele><time>2026-07-24T17:23:59Z</time></trkpt>
<trkpt lat="35.143119" lon="-84.844657"><ele>276.5</ele><time>2026-07-24T17:24:01Z</time></trkpt>
<trkpt lat="35.14311" lon="-84.844623"><ele>276.8</ele><time>2026-07-24T17:24:03Z</time></trkpt>
<trkpt lat="35.143102" lon="-84.844582"><ele>276.5</ele><time>2026-07-24T17:24:06Z</time></trkpt>
<trkpt lat="35.143092" lon="-84.844537"><ele>276.5</ele><time>2026-07-24T17:24:09Z</time></trkpt>
<trkpt lat="35.143085" lon="-84.844498"><ele>277.1</ele><time>2026-07-24T17:24:12Z</time></trkpt>
<trkpt lat="35.143075" lon="-84.844466"><ele>277.7</ele><time>2026-07-24T17:24:15Z</time></trkpt>
<trkpt lat="35.143073" lon="-84.844415"><ele>278.6</ele><time>2026-07-24T17:24:18Z</time></trkpt>
<trkpt lat="35.143061" lon="-84.84438"><ele>278.6</ele><time>2026-07-24T17:24:20Z</time></trkpt>
<trkpt lat="35.143054" lon="-84.844333"><ele>278.3</ele><time>2026-07-24T17:24:23Z</time></trkpt>
<trkpt lat="35.143053" lon="-84.844298"><ele>279.2</ele><time>2026-07-24T17:24:25Z</time></trkpt>
<trkpt lat="35.143047" lon="-84.844254"><ele>278.3</ele><time>2026-07-24T17:24:28Z</time></trkpt>
<trkpt lat="35.143029" lon="-84.844215"><ele>277.4</ele><time>2026-07-24T17:24:31Z</time></trkpt>
<trkpt lat="35.143014" lon="-84.844185"><ele>277.1</ele><time>2026-07-24T17:24:33Z</time></trkpt>
<trkpt lat="35.143001" lon="-84.844148"><ele>275.5</ele><time>2026-07-24T17:24:36Z</time></trkpt>
<trkpt lat="35.142997" lon="-84.844101"><ele>276.5</ele><time>2026-07-24T17:24:39Z</time></trkpt>
<trkpt lat="35.142984" lon="-84.844063"><ele>275.8</ele><time>2026-07-24T17:24:42Z</time></trkpt>
<trkpt lat="35.142966" lon="-84.844032"><ele>274.0</ele><time>2026-07-24T17:24:45Z</time></trkpt>
<trkpt lat="35.142957" lon="-84.843991"><ele>274.9</ele><time>2026-07-24T17:24:47Z</time></trkpt>
<trkpt lat="35.142957" lon="-84.843949"><ele>276.1</ele><time>2026-07-24T17:24:49Z</time></trkpt>
<trkpt lat="35.142951" lon="-84.8439"><ele>276.5</ele><time>2026-07-24T17:24:52Z</time></trkpt>
<trkpt lat="35.142943" lon="-84.843853"><ele>275.5</ele><time>2026-07-24T17:24:55Z</time></trkpt>
<trkpt lat="35.142937" lon="-84.843813"><ele>275.5</ele><time>2026-07-24T17:24:58Z</time></trkpt>
<trkpt lat="35.142933" lon="-84.84378"><ele>274.6</ele><time>2026-07-24T17:25:01Z</time></trkpt>
<trkpt lat="35.14292" lon="-84.843736"><ele>273.4</ele><time>2026-07-24T17:25:04Z</time></trkpt>
<trkpt lat="35.142918" lon="-84.843699"><ele>271.6</ele><time>2026-07-24T17:25:07Z</time></trkpt>
<trkpt lat="35.142918" lon="-84.843659"><ele>271.6</ele><time>2026-07-24T17:25:10Z</time></trkpt>
<trkpt lat="35.14293" lon="-84.843615"><ele>271.9</ele><time>2026-07-24T17:25:13Z</time></trkpt>
<trkpt lat="35.142951" lon="-84.843576"><ele>272.8</ele><time>2026-07-24T17:25:16Z</time></trkpt>
<trkpt lat="35.14298" lon="-84.843548"><ele>273.4</ele><time>2026-07-24T17:25:19Z</time></trkpt>
<trkpt lat="35.143015" lon="-84.843521"><ele>273.7</ele><time>2026-07-24T17:25:22Z</time></trkpt>
<trkpt lat="35.143045" lon="-84.843509"><ele>275.2</ele><time>2026-07-24T17:25:24Z</time></trkpt>
<trkpt lat="35.143073" lon="-84.843497"><ele>275.5</ele><time>2026-07-24T17:25:26Z</time></trkpt>
<trkpt lat="35.143109" lon="-84.843481"><ele>275.5</ele><time>2026-07-24T17:25:29Z</time></trkpt>
<trkpt lat="35.14314" lon="-84.843459"><ele>275.5</ele><time>2026-07-24T17:25:32Z</time></trkpt>
<trkpt lat="35.143177" lon="-84.843439"><ele>275.2</ele><time>2026-07-24T17:25:35Z</time></trkpt>
<trkpt lat="35.143202" lon="-84.843423"><ele>274.9</ele><time>2026-07-24T17:25:37Z</time></trkpt>
<trkpt lat="35.143227" lon="-84.843408"><ele>274.9</ele><time>2026-07-24T17:25:39Z</time></trkpt>
<trkpt lat="35.143265" lon="-84.843388"><ele>275.5</ele><time>2026-07-24T17:25:42Z</time></trkpt>
<trkpt lat="35.143292" lon="-84.843375"><ele>276.1</ele><time>2026-07-24T17:25:44Z</time></trkpt>
<trkpt lat="35.143327" lon="-84.843358"><ele>276.5</ele><time>2026-07-24T17:25:47Z</time></trkpt>
<trkpt lat="35.143333" lon="-84.843353"><ele>276.1</ele><time>2026-07-24T17:25:48Z</time></trkpt>
<trkpt lat="35.143337" lon="-84.843351"><ele>276.5</ele><time>2026-07-24T17:25:49Z</time></trkpt>
<trkpt lat="35.14334" lon="-84.843351"><ele>275.8</ele><time>2026-07-24T17:25:51Z</time></trkpt>
<trkpt lat="35.143344" lon="-84.843353"><ele>275.5</ele><time>2026-07-24T17:25:52Z</time></trkpt>
<trkpt lat="35.14338" lon="-84.843362"><ele>275.2</ele><time>2026-07-24T17:25:55Z</time></trkpt>
<trkpt lat="35.143412" lon="-84.843358"><ele>274.6</ele><time>2026-07-24T17:25:58Z</time></trkpt>
<trkpt lat="35.143438" lon="-84.843376"><ele>274.6</ele><time>2026-07-24T17:26:00Z</time></trkpt>
<trkpt lat="35.143455" lon="-84.843406"><ele>273.4</ele><time>2026-07-24T17:26:02Z</time></trkpt>
<trkpt lat="35.143473" lon="-84.843436"><ele>273.1</ele><time>2026-07-24T17:26:04Z</time></trkpt>
<trkpt lat="35.143485" lon="-84.843466"><ele>273.1</ele><time>2026-07-24T17:26:06Z</time></trkpt>
<trkpt lat="35.143499" lon="-84.843511"><ele>272.8</ele><time>2026-07-24T17:26:09Z</time></trkpt>
<trkpt lat="35.143516" lon="-84.843551"><ele>272.2</ele><time>2026-07-24T17:26:12Z</time></trkpt>
<trkpt lat="35.143529" lon="-84.843582"><ele>272.2</ele><time>2026-07-24T17:26:14Z</time></trkpt>
<trkpt lat="35.143539" lon="-84.843614"><ele>272.2</ele><time>2026-07-24T17:26:16Z</time></trkpt>
<trkpt lat="35.143556" lon="-84.843644"><ele>272.2</ele><time>2026-07-24T17:26:18Z</time></trkpt>
<trkpt lat="35.143585" lon="-84.843658"><ele>272.5</ele><time>2026-07-24T17:26:20Z</time></trkpt>
<trkpt lat="35.143613" lon="-84.843641"><ele>272.2</ele><time>2026-07-24T17:26:22Z</time></trkpt>
<trkpt lat="35.14365" lon="-84.84363"><ele>272.2</ele><time>2026-07-24T17:26:25Z</time></trkpt>
<trkpt lat="35.143648" lon="-84.843664"><ele>272.2</ele><time>2026-07-24T17:26:26Z</time></trkpt>
<trkpt lat="35.143608" lon="-84.843677"><ele>271.9</ele><time>2026-07-24T17:26:28Z</time></trkpt>
<trkpt lat="35.14358" lon="-84.843663"><ele>271.6</ele><time>2026-07-24T17:26:30Z</time></trkpt>
<trkpt lat="35.143559" lon="-84.843633"><ele>271.0</ele><time>2026-07-24T17:26:32Z</time></trkpt>
<trkpt lat="35.143544" lon="-84.843596"><ele>271.0</ele><time>2026-07-24T17:26:34Z</time></trkpt>
<trkpt lat="35.14353" lon="-84.843559"><ele>271.0</ele><time>2026-07-24T17:26:36Z</time></trkpt>
<trkpt lat="35.143517" lon="-84.843525"><ele>271.0</ele><time>2026-07-24T17:26:38Z</time></trkpt>
<trkpt lat="35.143504" lon="-84.843493"><ele>271.3</ele><time>2026-07-24T17:26:40Z</time></trkpt>
<trkpt lat="35.143484" lon="-84.843451"><ele>271.3</ele><time>2026-07-24T17:26:43Z</time></trkpt>
<trkpt lat="35.143461" lon="-84.843416"><ele>271.0</ele><time>2026-07-24T17:26:46Z</time></trkpt>
<trkpt lat="35.143437" lon="-84.843383"><ele>270.7</ele><time>2026-07-24T17:26:49Z</time></trkpt>
<trkpt lat="35.143401" lon="-84.843361"><ele>271.0</ele><time>2026-07-24T17:26:52Z</time></trkpt>
<trkpt lat="35.143371" lon="-84.843355"><ele>270.7</ele><time>2026-07-24T17:26:54Z</time></trkpt>
<trkpt lat="35.143338" lon="-84.843355"><ele>270.7</ele><time>2026-07-24T17:26:56Z</time></trkpt>
<trkpt lat="35.143309" lon="-84.843357"><ele>271.0</ele><time>2026-07-24T17:26:58Z</time></trkpt>
<trkpt lat="35.143271" lon="-84.843364"><ele>271.6</ele><time>2026-07-24T17:27:01Z</time></trkpt>
<trkpt lat="35.143236" lon="-84.843379"><ele>271.6</ele><time>2026-07-24T17:27:04Z</time></trkpt>
<trkpt lat="35.143198" lon="-84.843399"><ele>271.6</ele><time>2026-07-24T17:27:07Z</time></trkpt>
<trkpt lat="35.143164" lon="-84.843422"><ele>271.6</ele><time>2026-07-24T17:27:10Z</time></trkpt>
<trkpt lat="35.143127" lon="-84.843438"><ele>272.2</ele><time>2026-07-24T17:27:13Z</time></trkpt>
<trkpt lat="35.143101" lon="-84.843453"><ele>272.8</ele><time>2026-07-24T17:27:15Z</time></trkpt>
<trkpt lat="35.143074" lon="-84.843467"><ele>272.5</ele><time>2026-07-24T17:27:17Z</time></trkpt>
<trkpt lat="35.143048" lon="-84.843478"><ele>272.8</ele><time>2026-07-24T17:27:19Z</time></trkpt>
<trkpt lat="35.143022" lon="-84.84349"><ele>272.8</ele><time>2026-07-24T17:27:21Z</time></trkpt>
<trkpt lat="35.142988" lon="-84.843512"><ele>272.2</ele><time>2026-07-24T17:27:24Z</time></trkpt>
<trkpt lat="35.142959" lon="-84.84354"><ele>272.2</ele><time>2026-07-24T17:27:27Z</time></trkpt>
<trkpt lat="35.142936" lon="-84.843581"><ele>271.6</ele><time>2026-07-24T17:27:30Z</time></trkpt>
<trkpt lat="35.142923" lon="-84.843611"><ele>270.4</ele><time>2026-07-24T17:27:32Z</time></trkpt>
<trkpt lat="35.142917" lon="-84.84366"><ele>269.4</ele><time>2026-07-24T17:27:35Z</time></trkpt>
<trkpt lat="35.142923" lon="-84.843694"><ele>269.4</ele><time>2026-07-24T17:27:37Z</time></trkpt>
<trkpt lat="35.142923" lon="-84.843731"><ele>269.7</ele><time>2026-07-24T17:27:39Z</time></trkpt>
<trkpt lat="35.142931" lon="-84.843765"><ele>270.1</ele><time>2026-07-24T17:27:41Z</time></trkpt>
<trkpt lat="35.142939" lon="-84.843799"><ele>270.7</ele><time>2026-07-24T17:27:43Z</time></trkpt>
<trkpt lat="35.142945" lon="-84.843833"><ele>271.3</ele><time>2026-07-24T17:27:45Z</time></trkpt>
<trkpt lat="35.142958" lon="-84.843865"><ele>271.3</ele><time>2026-07-24T17:27:47Z</time></trkpt>
<trkpt lat="35.142965" lon="-84.843898"><ele>271.3</ele><time>2026-07-24T17:27:49Z</time></trkpt>
<trkpt lat="35.142973" lon="-84.843931"><ele>271.9</ele><time>2026-07-24T17:27:51Z</time></trkpt>
<trkpt lat="35.142983" lon="-84.843962"><ele>271.9</ele><time>2026-07-24T17:27:53Z</time></trkpt>
<trkpt lat="35.142995" lon="-84.844008"><ele>271.3</ele><time>2026-07-24T17:27:56Z</time></trkpt>
<trkpt lat="35.143004" lon="-84.844053"><ele>271.6</ele><time>2026-07-24T17:27:59Z</time></trkpt>
<trkpt lat="35.143013" lon="-84.8441"><ele>272.2</ele><time>2026-07-24T17:28:02Z</time></trkpt>
<trkpt lat="35.143024" lon="-84.844148"><ele>273.1</ele><time>2026-07-24T17:28:05Z</time></trkpt>
<trkpt lat="35.143035" lon="-84.844196"><ele>273.4</ele><time>2026-07-24T17:28:08Z</time></trkpt>
<trkpt lat="35.14304" lon="-84.844229"><ele>272.8</ele><time>2026-07-24T17:28:10Z</time></trkpt>
<trkpt lat="35.143049" lon="-84.844261"><ele>272.2</ele><time>2026-07-24T17:28:12Z</time></trkpt>
<trkpt lat="35.143053" lon="-84.844306"><ele>271.3</ele><time>2026-07-24T17:28:15Z</time></trkpt>
<trkpt lat="35.143064" lon="-84.844351"><ele>271.6</ele><time>2026-07-24T17:28:18Z</time></trkpt>
<trkpt lat="35.143074" lon="-84.844396"><ele>271.9</ele><time>2026-07-24T17:28:21Z</time></trkpt>
<trkpt lat="35.143082" lon="-84.844443"><ele>272.8</ele><time>2026-07-24T17:28:24Z</time></trkpt>
<trkpt lat="35.143099" lon="-84.844489"><ele>273.1</ele><time>2026-07-24T17:28:27Z</time></trkpt>
<trkpt lat="35.143105" lon="-84.844522"><ele>273.4</ele><time>2026-07-24T17:28:29Z</time></trkpt>
<trkpt lat="35.143117" lon="-84.844569"><ele>272.5</ele><time>2026-07-24T17:28:32Z</time></trkpt>
<trkpt lat="35.143125" lon="-84.844616"><ele>271.9</ele><time>2026-07-24T17:28:35Z</time></trkpt>
<trkpt lat="35.143132" lon="-84.84465"><ele>273.1</ele><time>2026-07-24T17:28:37Z</time></trkpt>
<trkpt lat="35.14315" lon="-84.844694"><ele>272.8</ele><time>2026-07-24T17:28:40Z</time></trkpt>
<trkpt lat="35.143153" lon="-84.844728"><ele>272.5</ele><time>2026-07-24T17:28:42Z</time></trkpt>
<trkpt lat="35.143157" lon="-84.844763"><ele>273.7</ele><time>2026-07-24T17:28:44Z</time></trkpt>
<trkpt lat="35.143161" lon="-84.844798"><ele>273.1</ele><time>2026-07-24T17:28:46Z</time></trkpt>
<trkpt lat="35.143169" lon="-84.844834"><ele>273.1</ele><time>2026-07-24T17:28:48Z</time></trkpt>
<trkpt lat="35.143174" lon="-84.84487"><ele>272.8</ele><time>2026-07-24T17:28:50Z</time></trkpt>
<trkpt lat="35.143176" lon="-84.844903"><ele>272.8</ele><time>2026-07-24T17:28:52Z</time></trkpt>
<trkpt lat="35.143176" lon="-84.844951"><ele>272.8</ele><time>2026-07-24T17:28:55Z</time></trkpt>
<trkpt lat="35.143179" lon="-84.844999"><ele>273.4</ele><time>2026-07-24T17:28:58Z</time></trkpt>
<trkpt lat="35.143186" lon="-84.845032"><ele>273.7</ele><time>2026-07-24T17:29:00Z</time></trkpt>
<trkpt lat="35.143206" lon="-84.845057"><ele>274.3</ele><time>2026-07-24T17:29:02Z</time></trkpt>
<trkpt lat="35.143235" lon="-84.84505"><ele>274.6</ele><time>2026-07-24T17:29:04Z</time></trkpt>
<trkpt lat="35.143273" lon="-84.845026"><ele>274.0</ele><time>2026-07-24T17:29:07Z</time></trkpt>
<trkpt lat="35.143301" lon="-84.845011"><ele>273.4</ele><time>2026-07-24T17:29:09Z</time></trkpt>
<trkpt lat="35.143328" lon="-84.844994"><ele>273.4</ele><time>2026-07-24T17:29:11Z</time></trkpt>
<trkpt lat="35.143355" lon="-84.84498"><ele>273.4</ele><time>2026-07-24T17:29:13Z</time></trkpt>
<trkpt lat="35.14338" lon="-84.844964"><ele>273.7</ele><time>2026-07-24T17:29:15Z</time></trkpt>
<trkpt lat="35.143405" lon="-84.84495"><ele>274.0</ele><time>2026-07-24T17:29:17Z</time></trkpt>
<trkpt lat="35.143438" lon="-84.844923"><ele>273.4</ele><time>2026-07-24T17:29:20Z</time></trkpt>
<trkpt lat="35.143472" lon="-84.844905"><ele>273.7</ele><time>2026-07-24T17:29:23Z</time></trkpt>
<trkpt lat="35.143508" lon="-84.844885"><ele>274.0</ele><time>2026-07-24T17:29:26Z</time></trkpt>
<trkpt lat="35.143543" lon="-84.844872"><ele>274.0</ele><time>2026-07-24T17:29:29Z</time></trkpt>
<trkpt lat="35.14358" lon="-84.844854"><ele>274.9</ele><time>2026-07-24T17:29:32Z</time></trkpt>
<trkpt lat="35.143606" lon="-84.844835"><ele>275.2</ele><time>2026-07-24T17:29:34Z</time></trkpt>
<trkpt lat="35.143635" lon="-84.84482"><ele>275.2</ele><time>2026-07-24T17:29:36Z</time></trkpt>
<trkpt lat="35.14366" lon="-84.844806"><ele>274.6</ele><time>2026-07-24T17:29:38Z</time></trkpt>
<trkpt lat="35.143698" lon="-84.84479"><ele>274.6</ele><time>2026-07-24T17:29:41Z</time></trkpt>
<trkpt lat="35.143734" lon="-84.844773"><ele>274.6</ele><time>2026-07-24T17:29:44Z</time></trkpt>
<trkpt lat="35.143771" lon="-84.844757"><ele>274.0</ele><time>2026-07-24T17:29:47Z</time></trkpt>
<trkpt lat="35.143794" lon="-84.844738"><ele>273.4</ele><time>2026-07-24T17:29:49Z</time></trkpt>
<trkpt lat="35.143817" lon="-84.844718"><ele>273.7</ele><time>2026-07-24T17:29:51Z</time></trkpt>
<trkpt lat="35.143836" lon="-84.84469"><ele>273.1</ele><time>2026-07-24T17:29:53Z</time></trkpt>
<trkpt lat="35.143853" lon="-84.844661"><ele>272.8</ele><time>2026-07-24T17:29:55Z</time></trkpt>
<trkpt lat="35.143867" lon="-84.844631"><ele>272.5</ele><time>2026-07-24T17:29:57Z</time></trkpt>
<trkpt lat="35.143893" lon="-84.844596"><ele>272.8</ele><time>2026-07-24T17:30:00Z</time></trkpt>
<trkpt lat="35.143913" lon="-84.84456"><ele>272.8</ele><time>2026-07-24T17:30:03Z</time></trkpt>
<trkpt lat="35.143931" lon="-84.84452"><ele>273.1</ele><time>2026-07-24T17:30:06Z</time></trkpt>
<trkpt lat="35.143945" lon="-84.844478"><ele>273.4</ele><time>2026-07-24T17:30:09Z</time></trkpt>
<trkpt lat="35.143942" lon="-84.844444"><ele>273.1</ele><time>2026-07-24T17:30:11Z</time></trkpt>
<trkpt lat="35.143915" lon="-84.844425"><ele>272.5</ele><time>2026-07-24T17:30:13Z</time></trkpt>
<trkpt lat="35.143878" lon="-84.844405"><ele>272.2</ele><time>2026-07-24T17:30:16Z</time></trkpt>
<trkpt lat="35.143848" lon="-84.844377"><ele>272.2</ele><time>2026-07-24T17:30:19Z</time></trkpt>
<trkpt lat="35.143819" lon="-84.844343"><ele>272.5</ele><time>2026-07-24T17:30:22Z</time></trkpt>
<trkpt lat="35.1438" lon="-84.844316"><ele>272.8</ele><time>2026-07-24T17:30:24Z</time></trkpt>
<trkpt lat="35.143783" lon="-84.844287"><ele>272.8</ele><time>2026-07-24T17:30:26Z</time></trkpt>
<trkpt lat="35.143772" lon="-84.844256"><ele>272.8</ele><time>2026-07-24T17:30:28Z</time></trkpt>
<trkpt lat="35.143763" lon="-84.844225"><ele>272.5</ele><time>2026-07-24T17:30:30Z</time></trkpt>
<trkpt lat="35.143748" lon="-84.844187"><ele>271.9</ele><time>2026-07-24T17:30:33Z</time></trkpt>
<trkpt lat="35.143735" lon="-84.844148"><ele>271.6</ele><time>2026-07-24T17:30:36Z</time></trkpt>
<trkpt lat="35.143719" lon="-84.844102"><ele>271.6</ele><time>2026-07-24T17:30:39Z</time></trkpt>
<trkpt lat="35.143707" lon="-84.84407"><ele>271.3</ele><time>2026-07-24T17:30:41Z</time></trkpt>
<trkpt lat="35.143696" lon="-84.844038"><ele>271.3</ele><time>2026-07-24T17:30:43Z</time></trkpt>
<trkpt lat="35.14368" lon="-84.843995"><ele>271.3</ele><time>2026-07-24T17:30:46Z</time></trkpt>
<trkpt lat="35.14367" lon="-84.843956"><ele>271.3</ele><time>2026-07-24T17:30:49Z</time></trkpt>
<trkpt lat="35.143656" lon="-84.843916"><ele>271.0</ele><time>2026-07-24T17:30:52Z</time></trkpt>
<trkpt lat="35.143639" lon="-84.84387"><ele>271.0</ele><time>2026-07-24T17:30:55Z</time></trkpt>
<trkpt lat="35.143628" lon="-84.843836"><ele>271.0</ele><time>2026-07-24T17:30:57Z</time></trkpt>
<trkpt lat="35.143613" lon="-84.84379"><ele>271.3</ele><time>2026-07-24T17:31:00Z</time></trkpt>
<trkpt lat="35.143604" lon="-84.84375"><ele>271.3</ele><time>2026-07-24T17:31:03Z</time></trkpt>
<trkpt lat="35.143587" lon="-84.843709"><ele>271.0</ele><time>2026-07-24T17:31:06Z</time></trkpt>
<trkpt lat="35.143572" lon="-84.843665"><ele>271.3</ele><time>2026-07-24T17:31:09Z</time></trkpt>
<trkpt lat="35.143554" lon="-84.84362"><ele>271.3</ele><time>2026-07-24T17:31:12Z</time></trkpt>
<trkpt lat="35.143536" lon="-84.843576"><ele>271.3</ele><time>2026-07-24T17:31:15Z</time></trkpt>
<trkpt lat="35.14352" lon="-84.843536"><ele>271.6</ele><time>2026-07-24T17:31:18Z</time></trkpt>
<trkpt lat="35.143505" lon="-84.843496"><ele>271.0</ele><time>2026-07-24T17:31:21Z</time></trkpt>
<trkpt lat="35.143485" lon="-84.843456"><ele>270.7</ele><time>2026-07-24T17:31:24Z</time></trkpt>
<trkpt lat="35.14347" lon="-84.843427"><ele>271.0</ele><time>2026-07-24T17:31:26Z</time></trkpt>
<trkpt lat="35.143452" lon="-84.843399"><ele>271.6</ele><time>2026-07-24T17:31:28Z</time></trkpt>
<trkpt lat="35.143422" lon="-84.843371"><ele>271.3</ele><time>2026-07-24T17:31:31Z</time></trkpt>
<trkpt lat="35.143385" lon="-84.843353"><ele>271.3</ele><time>2026-07-24T17:31:34Z</time></trkpt>
<trkpt lat="35.143349" lon="-84.843348"><ele>271.3</ele><time>2026-07-24T17:31:37Z</time></trkpt>
<trkpt lat="35.143309" lon="-84.843352"><ele>271.3</ele><time>2026-07-24T17:31:40Z</time></trkpt>
<trkpt lat="35.143282" lon="-84.84336"><ele>271.9</ele><time>2026-07-24T17:31:42Z</time></trkpt>
<trkpt lat="35.143254" lon="-84.843373"><ele>271.9</ele><time>2026-07-24T17:31:44Z</time></trkpt>
<trkpt lat="35.143226" lon="-84.843388"><ele>271.9</ele><time>2026-07-24T17:31:46Z</time></trkpt>
<trkpt lat="35.143197" lon="-84.843402"><ele>271.9</ele><time>2026-07-24T17:31:48Z</time></trkpt>
<trkpt lat="35.14316" lon="-84.843417"><ele>271.9</ele><time>2026-07-24T17:31:51Z</time></trkpt>
<trkpt lat="35.143125" lon="-84.843434"><ele>271.6</ele><time>2026-07-24T17:31:54Z</time></trkpt>
<trkpt lat="35.143092" lon="-84.843457"><ele>271.3</ele><time>2026-07-24T17:31:57Z</time></trkpt>
<trkpt lat="35.143054" lon="-84.843475"><ele>271.0</ele><time>2026-07-24T17:32:00Z</time></trkpt>
<trkpt lat="35.143017" lon="-84.843492"><ele>271.3</ele><time>2026-07-24T17:32:03Z</time></trkpt>
<trkpt lat="35.142984" lon="-84.843515"><ele>270.7</ele><time>2026-07-24T17:32:06Z</time></trkpt>
<trkpt lat="35.142962" lon="-84.843536"><ele>271.0</ele><time>2026-07-24T17:32:08Z</time></trkpt>
<trkpt lat="35.142935" lon="-84.84357"><ele>271.6</ele><time>2026-07-24T17:32:11Z</time></trkpt>
<trkpt lat="35.142919" lon="-84.843616"><ele>271.6</ele><time>2026-07-24T17:32:14Z</time></trkpt>
<trkpt lat="35.142911" lon="-84.843651"><ele>271.6</ele><time>2026-07-24T17:32:16Z</time></trkpt>
<trkpt lat="35.142911" lon="-84.843686"><ele>271.0</ele><time>2026-07-24T17:32:18Z</time></trkpt>
<trkpt lat="35.142914" lon="-84.843721"><ele>271.0</ele><time>2026-07-24T17:32:20Z</time></trkpt>
<trkpt lat="35.142919" lon="-84.843757"><ele>270.7</ele><time>2026-07-24T17:32:22Z</time></trkpt>
<trkpt lat="35.142927" lon="-84.843794"><ele>270.4</ele><time>2026-07-24T17:32:24Z</time></trkpt>
<trkpt lat="35.142933" lon="-84.84383"><ele>270.4</ele><time>2026-07-24T17:32:26Z</time></trkpt>
<trkpt lat="35.142941" lon="-84.843865"><ele>270.4</ele><time>2026-07-24T17:32:28Z</time></trkpt>
<trkpt lat="35.142948" lon="-84.843898"><ele>270.1</ele><time>2026-07-24T17:32:30Z</time></trkpt>
<trkpt lat="35.142963" lon="-84.843943"><ele>271.3</ele><time>2026-07-24T17:32:33Z</time></trkpt>
<trkpt lat="35.142972" lon="-84.843989"><ele>272.2</ele><time>2026-07-24T17:32:36Z</time></trkpt>
<trkpt lat="35.142982" lon="-84.844035"><ele>271.9</ele><time>2026-07-24T17:32:39Z</time></trkpt>
<trkpt lat="35.142996" lon="-84.84408"><ele>272.2</ele><time>2026-07-24T17:32:42Z</time></trkpt>
<trkpt lat="35.143008" lon="-84.84411"><ele>271.9</ele><time>2026-07-24T17:32:44Z</time></trkpt>
<trkpt lat="35.14302" lon="-84.844153"><ele>271.9</ele><time>2026-07-24T17:32:47Z</time></trkpt>
<trkpt lat="35.143031" lon="-84.844198"><ele>273.4</ele><time>2026-07-24T17:32:50Z</time></trkpt>
<trkpt lat="35.143047" lon="-84.844241"><ele>274.0</ele><time>2026-07-24T17:32:53Z</time></trkpt>
<trkpt lat="35.143054" lon="-84.844288"><ele>273.7</ele><time>2026-07-24T17:32:56Z</time></trkpt>
<trkpt lat="35.143068" lon="-84.844334"><ele>272.8</ele><time>2026-07-24T17:32:59Z</time></trkpt>
<trkpt lat="35.143079" lon="-84.844377"><ele>273.7</ele><time>2026-07-24T17:33:02Z</time></trkpt>
<trkpt lat="35.14309" lon="-84.844421"><ele>275.2</ele><time>2026-07-24T17:33:05Z</time></trkpt>
<trkpt lat="35.143105" lon="-84.844463"><ele>276.1</ele><time>2026-07-24T17:33:08Z</time></trkpt>
<trkpt lat="35.143118" lon="-84.84451"><ele>275.2</ele><time>2026-07-24T17:33:11Z</time></trkpt>
<trkpt lat="35.143118" lon="-84.844544"><ele>274.9</ele><time>2026-07-24T17:33:13Z</time></trkpt>
<trkpt lat="35.14312" lon="-84.844588"><ele>275.2</ele><time>2026-07-24T17:33:16Z</time></trkpt>
<trkpt lat="35.143136" lon="-84.844627"><ele>275.2</ele><time>2026-07-24T17:33:19Z</time></trkpt>
<trkpt lat="35.143152" lon="-84.84467"><ele>275.5</ele><time>2026-07-24T17:33:22Z</time></trkpt>
<trkpt lat="35.143153" lon="-84.844716"><ele>274.9</ele><time>2026-07-24T17:33:25Z</time></trkpt>
<trkpt lat="35.143157" lon="-84.844766"><ele>275.5</ele><time>2026-07-24T17:33:28Z</time></trkpt>
<trkpt lat="35.14316" lon="-84.844803"><ele>276.5</ele><time>2026-07-24T17:33:30Z</time></trkpt>
<trkpt lat="35.143163" lon="-84.844838"><ele>276.5</ele><time>2026-07-24T17:33:32Z</time></trkpt>
<trkpt lat="35.143152" lon="-84.844872"><ele>276.5</ele><time>2026-07-24T17:33:34Z</time></trkpt>
<trkpt lat="35.143159" lon="-84.844916"><ele>274.6</ele><time>2026-07-24T17:33:37Z</time></trkpt>
<trkpt lat="35.143169" lon="-84.84495"><ele>276.5</ele><time>2026-07-24T17:33:39Z</time></trkpt>
<trkpt lat="35.143176" lon="-84.844984"><ele>277.1</ele><time>2026-07-24T17:33:41Z</time></trkpt>
<trkpt lat="35.143184" lon="-84.845016"><ele>277.4</ele><time>2026-07-24T17:33:43Z</time></trkpt>
<trkpt lat="35.143201" lon="-84.845047"><ele>277.7</ele><time>2026-07-24T17:33:45Z</time></trkpt>
<trkpt lat="35.143228" lon="-84.84506"><ele>278.0</ele><time>2026-07-24T17:33:47Z</time></trkpt>
<trkpt lat="35.143255" lon="-84.845046"><ele>277.7</ele><time>2026-07-24T17:33:49Z</time></trkpt>
<trkpt lat="35.14328" lon="-84.845031"><ele>277.4</ele><time>2026-07-24T17:33:51Z</time></trkpt>
<trkpt lat="35.143306" lon="-84.845015"><ele>277.1</ele><time>2026-07-24T17:33:53Z</time></trkpt>
<trkpt lat="35.14333" lon="-84.844997"><ele>277.1</ele><time>2026-07-24T17:33:55Z</time></trkpt>
<trkpt lat="35.143363" lon="-84.844971"><ele>276.5</ele><time>2026-07-24T17:33:58Z</time></trkpt>
<trkpt lat="35.143403" lon="-84.844956"><ele>276.8</ele><time>2026-07-24T17:34:01Z</time></trkpt>
<trkpt lat="35.143437" lon="-84.844935"><ele>276.8</ele><time>2026-07-24T17:34:04Z</time></trkpt>
<trkpt lat="35.143468" lon="-84.844904"><ele>275.8</ele><time>2026-07-24T17:34:07Z</time></trkpt>
<trkpt lat="35.143506" lon="-84.844873"><ele>275.8</ele><time>2026-07-24T17:34:10Z</time></trkpt>
<trkpt lat="35.143532" lon="-84.844859"><ele>275.8</ele><time>2026-07-24T17:34:12Z</time></trkpt>
<trkpt lat="35.143567" lon="-84.844839"><ele>275.5</ele><time>2026-07-24T17:34:15Z</time></trkpt>
<trkpt lat="35.143599" lon="-84.844816"><ele>275.5</ele><time>2026-07-24T17:34:17Z</time></trkpt>
<trkpt lat="35.143628" lon="-84.844813"><ele>274.9</ele><time>2026-07-24T17:34:19Z</time></trkpt>
<trkpt lat="35.143659" lon="-84.844806"><ele>274.3</ele><time>2026-07-24T17:34:21Z</time></trkpt>
<trkpt lat="35.143696" lon="-84.844791"><ele>274.6</ele><time>2026-07-24T17:34:24Z</time></trkpt>
<trkpt lat="35.143731" lon="-84.844777"><ele>274.0</ele><time>2026-07-24T17:34:27Z</time></trkpt>
<trkpt lat="35.143765" lon="-84.84477"><ele>273.7</ele><time>2026-07-24T17:34:30Z</time></trkpt>
<trkpt lat="35.143794" lon="-84.844745"><ele>273.4</ele><time>2026-07-24T17:34:33Z</time></trkpt>
<trkpt lat="35.143816" lon="-84.844718"><ele>272.5</ele><time>2026-07-24T17:34:35Z</time></trkpt>
<trkpt lat="35.143829" lon="-84.844685"><ele>273.1</ele><time>2026-07-24T17:34:37Z</time></trkpt>
<trkpt lat="35.143854" lon="-84.844651"><ele>273.4</ele><time>2026-07-24T17:34:39Z</time></trkpt>
<trkpt lat="35.143872" lon="-84.844619"><ele>274.9</ele><time>2026-07-24T17:34:41Z</time></trkpt>
<trkpt lat="35.143903" lon="-84.844592"><ele>275.2</ele><time>2026-07-24T17:34:44Z</time></trkpt>
<trkpt lat="35.14392" lon="-84.844556"><ele>275.5</ele><time>2026-07-24T17:34:46Z</time></trkpt>
<trkpt lat="35.143937" lon="-84.84452"><ele>275.2</ele><time>2026-07-24T17:34:49Z</time></trkpt>
<trkpt lat="35.143942" lon="-84.844472"><ele>275.8</ele><time>2026-07-24T17:34:52Z</time></trkpt>
<trkpt lat="35.143938" lon="-84.844438"><ele>275.2</ele><time>2026-07-24T17:34:54Z</time></trkpt>
<trkpt lat="35.143919" lon="-84.844408"><ele>274.9</ele><time>2026-07-24T17:34:56Z</time></trkpt>
<trkpt lat="35.143893" lon="-84.844392"><ele>274.6</ele><time>2026-07-24T17:34:58Z</time></trkpt>
<trkpt lat="35.14386" lon="-84.84438"><ele>274.3</ele><time>2026-07-24T17:35:00Z</time></trkpt>
<trkpt lat="35.143835" lon="-84.844361"><ele>273.7</ele><time>2026-07-24T17:35:02Z</time></trkpt>
<trkpt lat="35.143817" lon="-84.84433"><ele>273.7</ele><time>2026-07-24T17:35:04Z</time></trkpt>
<trkpt lat="35.1438" lon="-84.844303"><ele>272.8</ele><time>2026-07-24T17:35:06Z</time></trkpt>
<trkpt lat="35.143783" lon="-84.844265"><ele>273.4</ele><time>2026-07-24T17:35:09Z</time></trkpt>
<trkpt lat="35.14377" lon="-84.844226"><ele>272.8</ele><time>2026-07-24T17:35:12Z</time></trkpt>
<trkpt lat="35.143754" lon="-84.844185"><ele>272.2</ele><time>2026-07-24T17:35:15Z</time></trkpt>
<trkpt lat="35.14374" lon="-84.844142"><ele>272.2</ele><time>2026-07-24T17:35:18Z</time></trkpt>
<trkpt lat="35.143729" lon="-84.844109"><ele>272.5</ele><time>2026-07-24T17:35:20Z</time></trkpt>
<trkpt lat="35.143716" lon="-84.844075"><ele>272.5</ele><time>2026-07-24T17:35:22Z</time></trkpt>
<trkpt lat="35.143704" lon="-84.844042"><ele>272.5</ele><time>2026-07-24T17:35:24Z</time></trkpt>
<trkpt lat="35.143688" lon="-84.843997"><ele>272.5</ele><time>2026-07-24T17:35:27Z</time></trkpt>
<trkpt lat="35.143677" lon="-84.843962"><ele>272.2</ele><time>2026-07-24T17:35:30Z</time></trkpt>
<trkpt lat="35.143664" lon="-84.843922"><ele>271.6</ele><time>2026-07-24T17:35:33Z</time></trkpt>
<trkpt lat="35.14365" lon="-84.843875"><ele>271.3</ele><time>2026-07-24T17:35:36Z</time></trkpt>
<trkpt lat="35.143638" lon="-84.843827"><ele>271.3</ele><time>2026-07-24T17:35:39Z</time></trkpt>
<trkpt lat="35.143626" lon="-84.843793"><ele>271.6</ele><time>2026-07-24T17:35:41Z</time></trkpt>
<trkpt lat="35.143615" lon="-84.84376"><ele>271.9</ele><time>2026-07-24T17:35:43Z</time></trkpt>
<trkpt lat="35.143602" lon="-84.84373"><ele>271.9</ele><time>2026-07-24T17:35:45Z</time></trkpt>
<trkpt lat="35.143585" lon="-84.843687"><ele>271.9</ele><time>2026-07-24T17:35:48Z</time></trkpt>
<trkpt lat="35.143571" lon="-84.843646"><ele>272.2</ele><time>2026-07-24T17:35:51Z</time></trkpt>
<trkpt lat="35.143557" lon="-84.843605"><ele>272.8</ele><time>2026-07-24T17:35:54Z</time></trkpt>
<trkpt lat="35.143551" lon="-84.843572"><ele>273.4</ele><time>2026-07-24T17:35:56Z</time></trkpt>
<trkpt lat="35.143536" lon="-84.843527"><ele>274.0</ele><time>2026-07-24T17:35:59Z</time></trkpt>
<trkpt lat="35.143521" lon="-84.843497"><ele>273.7</ele><time>2026-07-24T17:36:01Z</time></trkpt>
<trkpt lat="35.143498" lon="-84.843456"><ele>274.3</ele><time>2026-07-24T17:36:04Z</time></trkpt>
<trkpt lat="35.143481" lon="-84.843429"><ele>274.3</ele><time>2026-07-24T17:36:06Z</time></trkpt>
<trkpt lat="35.143455" lon="-84.84339"><ele>274.0</ele><time>2026-07-24T17:36:09Z</time></trkpt>
<trkpt lat="35.143428" lon="-84.843357"><ele>274.6</ele><time>2026-07-24T17:36:12Z</time></trkpt>
<trkpt lat="35.143394" lon="-84.843336"><ele>274.9</ele><time>2026-07-24T17:36:15Z</time></trkpt>
<trkpt lat="35.14336" lon="-84.843304"><ele>275.2</ele><time>2026-07-24T17:36:18Z</time></trkpt>
<trkpt lat="35.143371" lon="-84.843262"><ele>276.5</ele><time>2026-07-24T17:36:21Z</time></trkpt>
<trkpt lat="35.143299" lon="-84.84336"><ele>274.6</ele><time>2026-07-24T17:36:23Z</time></trkpt>
<trkpt lat="35.143266" lon="-84.843383"><ele>274.0</ele><time>2026-07-24T17:36:26Z</time></trkpt>
<trkpt lat="35.143229" lon="-84.8434"><ele>273.7</ele><time>2026-07-24T17:36:29Z</time></trkpt>
<trkpt lat="35.143194" lon="-84.843415"><ele>273.7</ele><time>2026-07-24T17:36:32Z</time></trkpt>
<trkpt lat="35.14316" lon="-84.843436"><ele>273.1</ele><time>2026-07-24T17:36:35Z</time></trkpt>
<trkpt lat="35.143123" lon="-84.843457"><ele>272.8</ele><time>2026-07-24T17:36:38Z</time></trkpt>
<trkpt lat="35.143091" lon="-84.843484"><ele>272.8</ele><time>2026-07-24T17:36:41Z</time></trkpt>
<trkpt lat="35.143055" lon="-84.843499"><ele>272.8</ele><time>2026-07-24T17:36:44Z</time></trkpt>
<trkpt lat="35.143017" lon="-84.843521"><ele>273.1</ele><time>2026-07-24T17:36:47Z</time></trkpt>
<trkpt lat="35.142995" lon="-84.843543"><ele>274.0</ele><time>2026-07-24T17:36:49Z</time></trkpt>
<trkpt lat="35.142969" lon="-84.843554"><ele>272.5</ele><time>2026-07-24T17:36:51Z</time></trkpt>
<trkpt lat="35.14295" lon="-84.843582"><ele>271.0</ele><time>2026-07-24T17:36:53Z</time></trkpt>
<trkpt lat="35.142935" lon="-84.843612"><ele>269.4</ele><time>2026-07-24T17:36:55Z</time></trkpt>
<trkpt lat="35.142922" lon="-84.843644"><ele>269.4</ele><time>2026-07-24T17:36:57Z</time></trkpt>
<trkpt lat="35.142919" lon="-84.843683"><ele>269.4</ele><time>2026-07-24T17:36:59Z</time></trkpt>
<trkpt lat="35.142918" lon="-84.843726"><ele>269.7</ele><time>2026-07-24T17:37:01Z</time></trkpt>
<trkpt lat="35.142921" lon="-84.843762"><ele>270.1</ele><time>2026-07-24T17:37:03Z</time></trkpt>
<trkpt lat="35.14293" lon="-84.843801"><ele>270.4</ele><time>2026-07-24T17:37:05Z</time></trkpt>
<trkpt lat="35.142936" lon="-84.843834"><ele>271.3</ele><time>2026-07-24T17:37:07Z</time></trkpt>
<trkpt lat="35.142948" lon="-84.843875"><ele>271.0</ele><time>2026-07-24T17:37:10Z</time></trkpt>
<trkpt lat="35.142959" lon="-84.843919"><ele>271.0</ele><time>2026-07-24T17:37:13Z</time></trkpt>
<trkpt lat="35.142965" lon="-84.843954"><ele>271.6</ele><time>2026-07-24T17:37:15Z</time></trkpt>
<trkpt lat="35.14297" lon="-84.843988"><ele>271.0</ele><time>2026-07-24T17:37:17Z</time></trkpt>
<trkpt lat="35.142979" lon="-84.844022"><ele>271.3</ele><time>2026-07-24T17:37:19Z</time></trkpt>
<trkpt lat="35.142988" lon="-84.844068"><ele>271.3</ele><time>2026-07-24T17:37:22Z</time></trkpt>
<trkpt lat="35.142997" lon="-84.844113"><ele>271.6</ele><time>2026-07-24T17:37:25Z</time></trkpt>
<trkpt lat="35.143008" lon="-84.844159"><ele>272.2</ele><time>2026-07-24T17:37:28Z</time></trkpt>
<trkpt lat="35.14302" lon="-84.844208"><ele>274.0</ele><time>2026-07-24T17:37:31Z</time></trkpt>
<trkpt lat="35.143025" lon="-84.844242"><ele>274.0</ele><time>2026-07-24T17:37:33Z</time></trkpt>
<trkpt lat="35.14303" lon="-84.844291"><ele>272.8</ele><time>2026-07-24T17:37:36Z</time></trkpt>
<trkpt lat="35.143043" lon="-84.844337"><ele>272.5</ele><time>2026-07-24T17:37:39Z</time></trkpt>
<trkpt lat="35.143057" lon="-84.844382"><ele>272.8</ele><time>2026-07-24T17:37:42Z</time></trkpt>
<trkpt lat="35.143062" lon="-84.844427"><ele>273.4</ele><time>2026-07-24T17:37:45Z</time></trkpt>
<trkpt lat="35.143073" lon="-84.844474"><ele>272.8</ele><time>2026-07-24T17:37:48Z</time></trkpt>
<trkpt lat="35.143088" lon="-84.84452"><ele>273.4</ele><time>2026-07-24T17:37:51Z</time></trkpt>
<trkpt lat="35.143096" lon="-84.844552"><ele>273.7</ele><time>2026-07-24T17:37:53Z</time></trkpt>
<trkpt lat="35.143106" lon="-84.844598"><ele>272.5</ele><time>2026-07-24T17:37:56Z</time></trkpt>
<trkpt lat="35.143121" lon="-84.844642"><ele>272.8</ele><time>2026-07-24T17:37:59Z</time></trkpt>
<trkpt lat="35.143129" lon="-84.844685"><ele>274.3</ele><time>2026-07-24T17:38:02Z</time></trkpt>
<trkpt lat="35.14314" lon="-84.844725"><ele>274.6</ele><time>2026-07-24T17:38:05Z</time></trkpt>
<trkpt lat="35.143151" lon="-84.844758"><ele>274.3</ele><time>2026-07-24T17:38:07Z</time></trkpt>
<trkpt lat="35.143164" lon="-84.844792"><ele>273.7</ele><time>2026-07-24T17:38:09Z</time></trkpt>
<trkpt lat="35.143171" lon="-84.844826"><ele>273.7</ele><time>2026-07-24T17:38:11Z</time></trkpt>
<trkpt lat="35.14318" lon="-84.844875"><ele>272.5</ele><time>2026-07-24T17:38:14Z</time></trkpt>
<trkpt lat="35.143182" lon="-84.844909"><ele>272.5</ele><time>2026-07-24T17:38:16Z</time></trkpt>
<trkpt lat="35.143181" lon="-84.844956"><ele>273.7</ele><time>2026-07-24T17:38:19Z</time></trkpt>
<trkpt lat="35.143185" lon="-84.845005"><ele>273.7</ele><time>2026-07-24T17:38:22Z</time></trkpt>
<trkpt lat="35.143195" lon="-84.845038"><ele>274.6</ele><time>2026-07-24T17:38:24Z</time></trkpt>
<trkpt lat="35.143221" lon="-84.845058"><ele>274.0</ele><time>2026-07-24T17:38:26Z</time></trkpt>
<trkpt lat="35.143259" lon="-84.845044"><ele>273.7</ele><time>2026-07-24T17:38:28Z</time></trkpt>
<trkpt lat="35.143291" lon="-84.845021"><ele>274.0</ele><time>2026-07-24T17:38:30Z</time></trkpt>
<trkpt lat="35.143318" lon="-84.845004"><ele>273.7</ele><time>2026-07-24T17:38:32Z</time></trkpt>
<trkpt lat="35.143346" lon="-84.844986"><ele>273.4</ele><time>2026-07-24T17:38:34Z</time></trkpt>
<trkpt lat="35.14337" lon="-84.844967"><ele>272.8</ele><time>2026-07-24T17:38:36Z</time></trkpt>
<trkpt lat="35.143395" lon="-84.844952"><ele>273.4</ele><time>2026-07-24T17:38:38Z</time></trkpt>
<trkpt lat="35.143431" lon="-84.844933"><ele>273.7</ele><time>2026-07-24T17:38:41Z</time></trkpt>
<trkpt lat="35.143467" lon="-84.844908"><ele>274.0</ele><time>2026-07-24T17:38:44Z</time></trkpt>
<trkpt lat="35.143491" lon="-84.844889"><ele>274.0</ele><time>2026-07-24T17:38:46Z</time></trkpt>
<trkpt lat="35.143526" lon="-84.844878"><ele>274.0</ele><time>2026-07-24T17:38:49Z</time></trkpt>
<trkpt lat="35.143558" lon="-84.844855"><ele>273.7</ele><time>2026-07-24T17:38:52Z</time></trkpt>
<trkpt lat="35.143595" lon="-84.844837"><ele>274.3</ele><time>2026-07-24T17:38:55Z</time></trkpt>
<trkpt lat="35.143629" lon="-84.844827"><ele>274.0</ele><time>2026-07-24T17:38:58Z</time></trkpt>
<trkpt lat="35.143661" lon="-84.844808"><ele>273.1</ele><time>2026-07-24T17:39:01Z</time></trkpt>
<trkpt lat="35.143697" lon="-84.844788"><ele>272.5</ele><time>2026-07-24T17:39:04Z</time></trkpt>
<trkpt lat="35.14373" lon="-84.844765"><ele>272.2</ele><time>2026-07-24T17:39:07Z</time></trkpt>
<trkpt lat="35.143765" lon="-84.844746"><ele>272.2</ele><time>2026-07-24T17:39:10Z</time></trkpt>
<trkpt lat="35.1438" lon="-84.844726"><ele>271.9</ele><time>2026-07-24T17:39:13Z</time></trkpt>
<trkpt lat="35.14383" lon="-84.844694"><ele>271.9</ele><time>2026-07-24T17:39:16Z</time></trkpt>
<trkpt lat="35.143845" lon="-84.844665"><ele>271.6</ele><time>2026-07-24T17:39:18Z</time></trkpt>
<trkpt lat="35.143864" lon="-84.844639"><ele>272.2</ele><time>2026-07-24T17:39:20Z</time></trkpt>
<trkpt lat="35.143882" lon="-84.844613"><ele>271.9</ele><time>2026-07-24T17:39:22Z</time></trkpt>
<trkpt lat="35.143899" lon="-84.844572"><ele>270.7</ele><time>2026-07-24T17:39:25Z</time></trkpt>
<trkpt lat="35.143924" lon="-84.844533"><ele>270.4</ele><time>2026-07-24T17:39:28Z</time></trkpt>
<trkpt lat="35.143941" lon="-84.844507"><ele>271.6</ele><time>2026-07-24T17:39:30Z</time></trkpt>
<trkpt lat="35.143955" lon="-84.844476"><ele>271.6</ele><time>2026-07-24T17:39:32Z</time></trkpt>
<trkpt lat="35.143955" lon="-84.844439"><ele>271.9</ele><time>2026-07-24T17:39:34Z</time></trkpt>
<trkpt lat="35.143929" lon="-84.844411"><ele>271.3</ele><time>2026-07-24T17:39:36Z</time></trkpt>
<trkpt lat="35.143898" lon="-84.844397"><ele>270.7</ele><time>2026-07-24T17:39:38Z</time></trkpt>
<trkpt lat="35.143869" lon="-84.844381"><ele>271.0</ele><time>2026-07-24T17:39:40Z</time></trkpt>
<trkpt lat="35.143846" lon="-84.84436"><ele>271.3</ele><time>2026-07-24T17:39:42Z</time></trkpt>
<trkpt lat="35.143823" lon="-84.844324"><ele>271.3</ele><time>2026-07-24T17:39:45Z</time></trkpt>
<trkpt lat="35.143807" lon="-84.84429"><ele>271.3</ele><time>2026-07-24T17:39:48Z</time></trkpt>
<trkpt lat="35.143789" lon="-84.844251"><ele>271.9</ele><time>2026-07-24T17:39:51Z</time></trkpt>
<trkpt lat="35.143774" lon="-84.844222"><ele>272.2</ele><time>2026-07-24T17:39:53Z</time></trkpt>
<trkpt lat="35.143761" lon="-84.844192"><ele>272.2</ele><time>2026-07-24T17:39:55Z</time></trkpt>
<trkpt lat="35.143748" lon="-84.844161"><ele>271.9</ele><time>2026-07-24T17:39:57Z</time></trkpt>
<trkpt lat="35.143737" lon="-84.844129"><ele>272.2</ele><time>2026-07-24T17:39:59Z</time></trkpt>
<trkpt lat="35.143723" lon="-84.844087"><ele>272.2</ele><time>2026-07-24T17:40:02Z</time></trkpt>
<trkpt lat="35.143712" lon="-84.844047"><ele>271.9</ele><time>2026-07-24T17:40:05Z</time></trkpt>
<trkpt lat="35.143699" lon="-84.844007"><ele>271.9</ele><time>2026-07-24T17:40:08Z</time></trkpt>
<trkpt lat="35.143684" lon="-84.843966"><ele>273.1</ele><time>2026-07-24T17:40:11Z</time></trkpt>
<trkpt lat="35.143671" lon="-84.84393"><ele>273.4</ele><time>2026-07-24T17:40:13Z</time></trkpt>
<trkpt lat="35.14366" lon="-84.843895"><ele>273.1</ele><time>2026-07-24T17:40:15Z</time></trkpt>
<trkpt lat="35.143647" lon="-84.843863"><ele>272.8</ele><time>2026-07-24T17:40:17Z</time></trkpt>
<trkpt lat="35.143635" lon="-84.843821"><ele>272.8</ele><time>2026-07-24T17:40:20Z</time></trkpt>
<trkpt lat="35.143621" lon="-84.843781"><ele>272.5</ele><time>2026-07-24T17:40:23Z</time></trkpt>
<trkpt lat="35.143605" lon="-84.843743"><ele>271.9</ele><time>2026-07-24T17:40:26Z</time></trkpt>
<trkpt lat="35.143589" lon="-84.843698"><ele>271.6</ele><time>2026-07-24T17:40:29Z</time></trkpt>
<trkpt lat="35.143578" lon="-84.843667"><ele>271.9</ele><time>2026-07-24T17:40:31Z</time></trkpt>
<trkpt lat="35.143567" lon="-84.843634"><ele>271.9</ele><time>2026-07-24T17:40:33Z</time></trkpt>
<trkpt lat="35.143555" lon="-84.843602"><ele>271.9</ele><time>2026-07-24T17:40:35Z</time></trkpt>
<trkpt lat="35.143541" lon="-84.843557"><ele>272.2</ele><time>2026-07-24T17:40:38Z</time></trkpt>
<trkpt lat="35.143526" lon="-84.843521"><ele>272.2</ele><time>2026-07-24T17:40:41Z</time></trkpt>
<trkpt lat="35.143512" lon="-84.843479"><ele>271.6</ele><time>2026-07-24T17:40:44Z</time></trkpt>
<trkpt lat="35.143493" lon="-84.843439"><ele>271.6</ele><time>2026-07-24T17:40:47Z</time></trkpt>
<trkpt lat="35.143475" lon="-84.843412"><ele>271.6</ele><time>2026-07-24T17:40:49Z</time></trkpt>
<trkpt lat="35.143454" lon="-84.84339"><ele>271.6</ele><time>2026-07-24T17:40:51Z</time></trkpt>
<trkpt lat="35.143421" lon="-84.843367"><ele>271.3</ele><time>2026-07-24T17:40:54Z</time></trkpt>
<trkpt lat="35.143386" lon="-84.843356"><ele>270.7</ele><time>2026-07-24T17:40:57Z</time></trkpt>
<trkpt lat="35.14335" lon="-84.843358"><ele>270.4</ele><time>2026-07-24T17:41:00Z</time></trkpt>
<trkpt lat="35.14331" lon="-84.84336"><ele>270.7</ele><time>2026-07-24T17:41:03Z</time></trkpt>
<trkpt lat="35.143282" lon="-84.843369"><ele>271.9</ele><time>2026-07-24T17:41:05Z</time></trkpt>
<trkpt lat="35.143253" lon="-84.843381"><ele>272.2</ele><time>2026-07-24T17:41:07Z</time></trkpt>
<trkpt lat="35.143225" lon="-84.84339"><ele>272.5</ele><time>2026-07-24T17:41:09Z</time></trkpt>
<trkpt lat="35.143198" lon="-84.843403"><ele>272.5</ele><time>2026-07-24T17:41:11Z</time></trkpt>
<trkpt lat="35.143163" lon="-84.843422"><ele>272.5</ele><time>2026-07-24T17:41:14Z</time></trkpt>
<trkpt lat="35.143128" lon="-84.843437"><ele>272.2</ele><time>2026-07-24T17:41:17Z</time></trkpt>
<trkpt lat="35.143092" lon="-84.843456"><ele>272.2</ele><time>2026-07-24T17:41:20Z</time></trkpt>
<trkpt lat="35.143052" lon="-84.84347"><ele>272.2</ele><time>2026-07-24T17:41:23Z</time></trkpt>
<trkpt lat="35.143025" lon="-84.843481"><ele>271.6</ele><time>2026-07-24T17:41:25Z</time></trkpt>
<trkpt lat="35.14299" lon="-84.843501"><ele>271.9</ele><time>2026-07-24T17:41:28Z</time></trkpt>
<trkpt lat="35.142959" lon="-84.84352"><ele>271.6</ele><time>2026-07-24T17:41:31Z</time></trkpt>
<trkpt lat="35.142934" lon="-84.843555"><ele>271.0</ele><time>2026-07-24T17:41:34Z</time></trkpt>
<trkpt lat="35.142925" lon="-84.843588"><ele>270.4</ele><time>2026-07-24T17:41:36Z</time></trkpt>
<trkpt lat="35.14292" lon="-84.843625"><ele>269.7</ele><time>2026-07-24T17:41:38Z</time></trkpt>
<trkpt lat="35.142922" lon="-84.843659"><ele>269.4</ele><time>2026-07-24T17:41:40Z</time></trkpt>
<trkpt lat="35.142923" lon="-84.843695"><ele>269.4</ele><time>2026-07-24T17:41:42Z</time></trkpt>
<trkpt lat="35.142926" lon="-84.843731"><ele>270.1</ele><time>2026-07-24T17:41:44Z</time></trkpt>
<trkpt lat="35.14293" lon="-84.843765"><ele>270.1</ele><time>2026-07-24T17:41:46Z</time></trkpt>
<trkpt lat="35.142934" lon="-84.843798"><ele>270.7</ele><time>2026-07-24T17:41:48Z</time></trkpt>
<trkpt lat="35.142945" lon="-84.843847"><ele>271.0</ele><time>2026-07-24T17:41:51Z</time></trkpt>
<trkpt lat="35.142957" lon="-84.843881"><ele>271.9</ele><time>2026-07-24T17:41:53Z</time></trkpt>
<trkpt lat="35.142962" lon="-84.843931"><ele>271.3</ele><time>2026-07-24T17:41:56Z</time></trkpt>
<trkpt lat="35.142969" lon="-84.843966"><ele>270.7</ele><time>2026-07-24T17:41:58Z</time></trkpt>
<trkpt lat="35.142978" lon="-84.843999"><ele>271.0</ele><time>2026-07-24T17:42:00Z</time></trkpt>
<trkpt lat="35.142985" lon="-84.844043"><ele>270.7</ele><time>2026-07-24T17:42:03Z</time></trkpt>
<trkpt lat="35.142997" lon="-84.844086"><ele>270.7</ele><time>2026-07-24T17:42:06Z</time></trkpt>
<trkpt lat="35.143009" lon="-84.844131"><ele>270.7</ele><time>2026-07-24T17:42:09Z</time></trkpt>
<trkpt lat="35.143017" lon="-84.844177"><ele>270.4</ele><time>2026-07-24T17:42:12Z</time></trkpt>
<trkpt lat="35.143026" lon="-84.84421"><ele>270.7</ele><time>2026-07-24T17:42:14Z</time></trkpt>
<trkpt lat="35.143035" lon="-84.844245"><ele>271.3</ele><time>2026-07-24T17:42:16Z</time></trkpt>
<trkpt lat="35.143041" lon="-84.844279"><ele>271.3</ele><time>2026-07-24T17:42:18Z</time></trkpt>
<trkpt lat="35.143046" lon="-84.844329"><ele>270.7</ele><time>2026-07-24T17:42:21Z</time></trkpt>
<trkpt lat="35.143057" lon="-84.844376"><ele>271.0</ele><time>2026-07-24T17:42:24Z</time></trkpt>
<trkpt lat="35.143076" lon="-84.844416"><ele>271.9</ele><time>2026-07-24T17:42:27Z</time></trkpt>
<trkpt lat="35.143088" lon="-84.844462"><ele>272.5</ele><time>2026-07-24T17:42:30Z</time></trkpt>
<trkpt lat="35.1431" lon="-84.844509"><ele>273.4</ele><time>2026-07-24T17:42:33Z</time></trkpt>
<trkpt lat="35.143108" lon="-84.844554"><ele>273.4</ele><time>2026-07-24T17:42:36Z</time></trkpt>
<trkpt lat="35.143114" lon="-84.844598"><ele>273.4</ele><time>2026-07-24T17:42:39Z</time></trkpt>
<trkpt lat="35.143123" lon="-84.844643"><ele>272.8</ele><time>2026-07-24T17:42:42Z</time></trkpt>
<trkpt lat="35.143135" lon="-84.844689"><ele>272.5</ele><time>2026-07-24T17:42:45Z</time></trkpt>
<trkpt lat="35.143143" lon="-84.844736"><ele>271.9</ele><time>2026-07-24T17:42:48Z</time></trkpt>
<trkpt lat="35.143152" lon="-84.844784"><ele>273.1</ele><time>2026-07-24T17:42:51Z</time></trkpt>
<trkpt lat="35.143161" lon="-84.844834"><ele>273.1</ele><time>2026-07-24T17:42:54Z</time></trkpt>
<trkpt lat="35.143161" lon="-84.84487"><ele>272.8</ele><time>2026-07-24T17:42:56Z</time></trkpt>
<trkpt lat="35.143163" lon="-84.844919"><ele>272.5</ele><time>2026-07-24T17:42:59Z</time></trkpt>
<trkpt lat="35.143173" lon="-84.844965"><ele>272.5</ele><time>2026-07-24T17:43:02Z</time></trkpt>
<trkpt lat="35.143192" lon="-84.845011"><ele>272.8</ele><time>2026-07-24T17:43:05Z</time></trkpt>
<trkpt lat="35.143209" lon="-84.84504"><ele>274.0</ele><time>2026-07-24T17:43:07Z</time></trkpt>
<trkpt lat="35.143242" lon="-84.845037"><ele>273.4</ele><time>2026-07-24T17:43:09Z</time></trkpt>
<trkpt lat="35.143272" lon="-84.845018"><ele>272.5</ele><time>2026-07-24T17:43:11Z</time></trkpt>
<trkpt lat="35.143299" lon="-84.845002"><ele>272.2</ele><time>2026-07-24T17:43:13Z</time></trkpt>
<trkpt lat="35.143327" lon="-84.844993"><ele>272.8</ele><time>2026-07-24T17:43:15Z</time></trkpt>
<trkpt lat="35.143365" lon="-84.844972"><ele>272.2</ele><time>2026-07-24T17:43:18Z</time></trkpt>
<trkpt lat="35.1434" lon="-84.844951"><ele>271.9</ele><time>2026-07-24T17:43:21Z</time></trkpt>
<trkpt lat="35.143432" lon="-84.844926"><ele>272.5</ele><time>2026-07-24T17:43:24Z</time></trkpt>
<trkpt lat="35.143469" lon="-84.844905"><ele>273.1</ele><time>2026-07-24T17:43:27Z</time></trkpt>
<trkpt lat="35.143503" lon="-84.844884"><ele>273.4</ele><time>2026-07-24T17:43:30Z</time></trkpt>
<trkpt lat="35.14354" lon="-84.844868"><ele>273.7</ele><time>2026-07-24T17:43:33Z</time></trkpt>
<trkpt lat="35.143572" lon="-84.844849"><ele>273.7</ele><time>2026-07-24T17:43:36Z</time></trkpt>
<trkpt lat="35.143606" lon="-84.844827"><ele>272.8</ele><time>2026-07-24T17:43:39Z</time></trkpt>
<trkpt lat="35.143631" lon="-84.844811"><ele>271.9</ele><time>2026-07-24T17:43:41Z</time></trkpt>
<trkpt lat="35.143665" lon="-84.84479"><ele>271.3</ele><time>2026-07-24T17:43:44Z</time></trkpt>
<trkpt lat="35.143688" lon="-84.844771"><ele>271.0</ele><time>2026-07-24T17:43:46Z</time></trkpt>
<trkpt lat="35.143724" lon="-84.844751"><ele>270.1</ele><time>2026-07-24T17:43:49Z</time></trkpt>
<trkpt lat="35.14376" lon="-84.844734"><ele>269.7</ele><time>2026-07-24T17:43:52Z</time></trkpt>
<trkpt lat="35.143795" lon="-84.844712"><ele>270.1</ele><time>2026-07-24T17:43:55Z</time></trkpt>
<trkpt lat="35.143827" lon="-84.844681"><ele>269.1</ele><time>2026-07-24T17:43:58Z</time></trkpt>
<trkpt lat="35.143846" lon="-84.844651"><ele>269.1</ele><time>2026-07-24T17:44:00Z</time></trkpt>
<trkpt lat="35.143863" lon="-84.844623"><ele>268.5</ele><time>2026-07-24T17:44:02Z</time></trkpt>
<trkpt lat="35.143876" lon="-84.844591"><ele>269.4</ele><time>2026-07-24T17:44:04Z</time></trkpt>
<trkpt lat="35.143888" lon="-84.844559"><ele>269.4</ele><time>2026-07-24T17:44:06Z</time></trkpt>
<trkpt lat="35.143906" lon="-84.844519"><ele>270.4</ele><time>2026-07-24T17:44:09Z</time></trkpt>
<trkpt lat="35.14393" lon="-84.844486"><ele>271.0</ele><time>2026-07-24T17:44:12Z</time></trkpt>
<trkpt lat="35.143939" lon="-84.844454"><ele>271.3</ele><time>2026-07-24T17:44:14Z</time></trkpt>
<trkpt lat="35.143931" lon="-84.844418"><ele>271.9</ele><time>2026-07-24T17:44:16Z</time></trkpt>
<trkpt lat="35.1439" lon="-84.844403"><ele>271.9</ele><time>2026-07-24T17:44:18Z</time></trkpt>
<trkpt lat="35.143874" lon="-84.844388"><ele>272.5</ele><time>2026-07-24T17:44:20Z</time></trkpt>
<trkpt lat="35.143852" lon="-84.844366"><ele>272.5</ele><time>2026-07-24T17:44:22Z</time></trkpt>
<trkpt lat="35.14383" lon="-84.844344"><ele>273.1</ele><time>2026-07-24T17:44:24Z</time></trkpt>
<trkpt lat="35.143807" lon="-84.844307"><ele>272.5</ele><time>2026-07-24T17:44:27Z</time></trkpt>
<trkpt lat="35.143783" lon="-84.844267"><ele>272.8</ele><time>2026-07-24T17:44:30Z</time></trkpt>
<trkpt lat="35.143769" lon="-84.844238"><ele>273.1</ele><time>2026-07-24T17:44:32Z</time></trkpt>
<trkpt lat="35.143757" lon="-84.844206"><ele>273.7</ele><time>2026-07-24T17:44:34Z</time></trkpt>
<trkpt lat="35.143745" lon="-84.844173"><ele>273.1</ele><time>2026-07-24T17:44:36Z</time></trkpt>
<trkpt lat="35.143734" lon="-84.844142"><ele>273.1</ele><time>2026-07-24T17:44:38Z</time></trkpt>
<trkpt lat="35.143722" lon="-84.844102"><ele>272.8</ele><time>2026-07-24T17:44:41Z</time></trkpt>
<trkpt lat="35.14371" lon="-84.844065"><ele>272.5</ele><time>2026-07-24T17:44:44Z</time></trkpt>
<trkpt lat="35.143698" lon="-84.844034"><ele>271.9</ele><time>2026-07-24T17:44:46Z</time></trkpt>
<trkpt lat="35.143683" lon="-84.843992"><ele>271.9</ele><time>2026-07-24T17:44:49Z</time></trkpt>
<trkpt lat="35.143668" lon="-84.843945"><ele>272.5</ele><time>2026-07-24T17:44:52Z</time></trkpt>
<trkpt lat="35.143657" lon="-84.843912"><ele>272.8</ele><time>2026-07-24T17:44:54Z</time></trkpt>
<trkpt lat="35.143639" lon="-84.843868"><ele>273.1</ele><time>2026-07-24T17:44:57Z</time></trkpt>
<trkpt lat="35.143627" lon="-84.843823"><ele>273.1</ele><time>2026-07-24T17:45:00Z</time></trkpt>
<trkpt lat="35.143618" lon="-84.84378"><ele>273.4</ele><time>2026-07-24T17:45:03Z</time></trkpt>
<trkpt lat="35.143605" lon="-84.843739"><ele>273.4</ele><time>2026-07-24T17:45:06Z</time></trkpt>
<trkpt lat="35.143589" lon="-84.843696"><ele>273.1</ele><time>2026-07-24T17:45:09Z</time></trkpt>
<trkpt lat="35.14359" lon="-84.843647"><ele>273.4</ele><time>2026-07-24T17:45:12Z</time></trkpt>
<trkpt lat="35.14363" lon="-84.843638"><ele>273.1</ele><time>2026-07-24T17:45:15Z</time></trkpt>
<trkpt lat="35.143651" lon="-84.843615"><ele>273.4</ele><time>2026-07-24T17:45:17Z</time></trkpt>
<trkpt lat="35.14361" lon="-84.843592"><ele>274.0</ele><time>2026-07-24T17:45:19Z</time></trkpt>
<trkpt lat="35.143591" lon="-84.843628"><ele>273.7</ele><time>2026-07-24T17:45:21Z</time></trkpt>
<trkpt lat="35.143593" lon="-84.843671"><ele>272.5</ele><time>2026-07-24T17:45:23Z</time></trkpt>
<trkpt lat="35.143604" lon="-84.843708"><ele>271.9</ele><time>2026-07-24T17:45:25Z</time></trkpt>
<trkpt lat="35.143614" lon="-84.843746"><ele>272.2</ele><time>2026-07-24T17:45:27Z</time></trkpt>
<trkpt lat="35.143623" lon="-84.843783"><ele>272.2</ele><time>2026-07-24T17:45:29Z</time></trkpt>
<trkpt lat="35.143631" lon="-84.843815"><ele>272.2</ele><time>2026-07-24T17:45:31Z</time></trkpt>
<trkpt lat="35.143645" lon="-84.843856"><ele>272.5</ele><time>2026-07-24T17:45:34Z</time></trkpt>
<trkpt lat="35.14366" lon="-84.843898"><ele>272.5</ele><time>2026-07-24T17:45:37Z</time></trkpt>
<trkpt lat="35.14367" lon="-84.843929"><ele>272.8</ele><time>2026-07-24T17:45:39Z</time></trkpt>
<trkpt lat="35.143688" lon="-84.843975"><ele>272.5</ele><time>2026-07-24T17:45:42Z</time></trkpt>
<trkpt lat="35.143698" lon="-84.844008"><ele>273.1</ele><time>2026-07-24T17:45:44Z</time></trkpt>
<trkpt lat="35.14371" lon="-84.844041"><ele>273.4</ele><time>2026-07-24T17:45:46Z</time></trkpt>
<trkpt lat="35.143721" lon="-84.844086"><ele>273.4</ele><time>2026-07-24T17:45:49Z</time></trkpt>
<trkpt lat="35.143735" lon="-84.844125"><ele>273.1</ele><time>2026-07-24T17:45:52Z</time></trkpt>
<trkpt lat="35.143749" lon="-84.844168"><ele>273.4</ele><time>2026-07-24T17:45:55Z</time></trkpt>
<trkpt lat="35.143759" lon="-84.8442"><ele>273.7</ele><time>2026-07-24T17:45:57Z</time></trkpt>
<trkpt lat="35.143768" lon="-84.844232"><ele>274.0</ele><time>2026-07-24T17:45:59Z</time></trkpt>
<trkpt lat="35.143783" lon="-84.844262"><ele>274.0</ele><time>2026-07-24T17:46:01Z</time></trkpt>
<trkpt lat="35.143796" lon="-84.844293"><ele>274.0</ele><time>2026-07-24T17:46:03Z</time></trkpt>
<trkpt lat="35.143811" lon="-84.844324"><ele>274.3</ele><time>2026-07-24T17:46:05Z</time></trkpt>
<trkpt lat="35.143824" lon="-84.844354"><ele>274.6</ele><time>2026-07-24T17:46:07Z</time></trkpt>
<trkpt lat="35.143841" lon="-84.844382"><ele>274.6</ele><time>2026-07-24T17:46:09Z</time></trkpt>
<trkpt lat="35.143869" lon="-84.844414"><ele>275.2</ele><time>2026-07-24T17:46:12Z</time></trkpt>
<trkpt lat="35.143905" lon="-84.844433"><ele>274.0</ele><time>2026-07-24T17:46:15Z</time></trkpt>
<trkpt lat="35.143931" lon="-84.844446"><ele>274.3</ele><time>2026-07-24T17:46:17Z</time></trkpt>
<trkpt lat="35.14397" lon="-84.84446"><ele>273.4</ele><time>2026-07-24T17:46:20Z</time></trkpt>
<trkpt lat="35.144006" lon="-84.84448"><ele>273.7</ele><time>2026-07-24T17:46:23Z</time></trkpt>
<trkpt lat="35.144039" lon="-84.844504"><ele>273.7</ele><time>2026-07-24T17:46:26Z</time></trkpt>
<trkpt lat="35.14406" lon="-84.844529"><ele>273.4</ele><time>2026-07-24T17:46:28Z</time></trkpt>
<trkpt lat="35.144077" lon="-84.844556"><ele>272.8</ele><time>2026-07-24T17:46:30Z</time></trkpt>
<trkpt lat="35.144101" lon="-84.844594"><ele>273.1</ele><time>2026-07-24T17:46:33Z</time></trkpt>
<trkpt lat="35.14411" lon="-84.844641"><ele>274.0</ele><time>2026-07-24T17:46:36Z</time></trkpt>
<trkpt lat="35.144119" lon="-84.844688"><ele>273.7</ele><time>2026-07-24T17:46:39Z</time></trkpt>
<trkpt lat="35.144133" lon="-84.844733"><ele>273.7</ele><time>2026-07-24T17:46:42Z</time></trkpt>
<trkpt lat="35.144148" lon="-84.844775"><ele>274.0</ele><time>2026-07-24T17:46:45Z</time></trkpt>
<trkpt lat="35.144161" lon="-84.84482"><ele>274.0</ele><time>2026-07-24T17:46:48Z</time></trkpt>
<trkpt lat="35.144156" lon="-84.844863"><ele>272.8</ele><time>2026-07-24T17:46:51Z</time></trkpt>
<trkpt lat="35.144128" lon="-84.844893"><ele>273.1</ele><time>2026-07-24T17:46:54Z</time></trkpt>
<trkpt lat="35.144099" lon="-84.8449"><ele>272.8</ele><time>2026-07-24T17:46:56Z</time></trkpt>
<trkpt lat="35.144059" lon="-84.84491"><ele>272.8</ele><time>2026-07-24T17:46:59Z</time></trkpt>
<trkpt lat="35.14402" lon="-84.844915"><ele>273.1</ele><time>2026-07-24T17:47:02Z</time></trkpt>
<trkpt lat="35.143992" lon="-84.844919"><ele>273.4</ele><time>2026-07-24T17:47:04Z</time></trkpt>
<trkpt lat="35.143956" lon="-84.844932"><ele>273.1</ele><time>2026-07-24T17:47:07Z</time></trkpt>
<trkpt lat="35.143918" lon="-84.844945"><ele>272.2</ele><time>2026-07-24T17:47:10Z</time></trkpt>
<trkpt lat="35.143889" lon="-84.844947"><ele>273.7</ele><time>2026-07-24T17:47:12Z</time></trkpt>
<trkpt lat="35.143852" lon="-84.844962"><ele>273.1</ele><time>2026-07-24T17:47:15Z</time></trkpt>
<trkpt lat="35.143811" lon="-84.844969"><ele>274.0</ele><time>2026-07-24T17:47:18Z</time></trkpt>
<trkpt lat="35.143773" lon="-84.84497"><ele>273.4</ele><time>2026-07-24T17:47:21Z</time></trkpt>
<trkpt lat="35.143734" lon="-84.844968"><ele>274.0</ele><time>2026-07-24T17:47:24Z</time></trkpt>
<trkpt lat="35.143699" lon="-84.844976"><ele>272.5</ele><time>2026-07-24T17:47:27Z</time></trkpt>
<trkpt lat="35.143673" lon="-84.844992"><ele>272.5</ele><time>2026-07-24T17:47:29Z</time></trkpt>
<trkpt lat="35.143637" lon="-84.845013"><ele>271.9</ele><time>2026-07-24T17:47:32Z</time></trkpt>
<trkpt lat="35.143601" lon="-84.845031"><ele>271.6</ele><time>2026-07-24T17:47:35Z</time></trkpt>
<trkpt lat="35.143565" lon="-84.845045"><ele>272.8</ele><time>2026-07-24T17:47:38Z</time></trkpt>
<trkpt lat="35.143529" lon="-84.845061"><ele>273.7</ele><time>2026-07-24T17:47:41Z</time></trkpt>
<trkpt lat="35.143494" lon="-84.845064"><ele>274.3</ele><time>2026-07-24T17:47:44Z</time></trkpt>
<trkpt lat="35.14346" lon="-84.845074"><ele>274.3</ele><time>2026-07-24T17:47:47Z</time></trkpt>
<trkpt lat="35.143438" lon="-84.845095"><ele>273.7</ele><time>2026-07-24T17:47:49Z</time></trkpt>
<trkpt lat="35.143416" lon="-84.845117"><ele>274.0</ele><time>2026-07-24T17:47:51Z</time></trkpt>
<trkpt lat="35.143392" lon="-84.845138"><ele>273.4</ele><time>2026-07-24T17:47:53Z</time></trkpt>
<trkpt lat="35.143359" lon="-84.845162"><ele>273.4</ele><time>2026-07-24T17:47:56Z</time></trkpt>
<trkpt lat="35.143322" lon="-84.845185"><ele>273.4</ele><time>2026-07-24T17:47:59Z</time></trkpt>
<trkpt lat="35.143284" lon="-84.845192"><ele>273.7</ele><time>2026-07-24T17:48:02Z</time></trkpt>
<trkpt lat="35.143245" lon="-84.845188"><ele>273.7</ele><time>2026-07-24T17:48:05Z</time></trkpt>
<trkpt lat="35.143218" lon="-84.845162"><ele>271.6</ele><time>2026-07-24T17:48:08Z</time></trkpt>
<trkpt lat="35.143201" lon="-84.845121"><ele>270.7</ele><time>2026-07-24T17:48:11Z</time></trkpt>
<trkpt lat="35.14319" lon="-84.845081"><ele>269.7</ele><time>2026-07-24T17:48:14Z</time></trkpt>
<trkpt lat="35.143188" lon="-84.845033"><ele>269.7</ele><time>2026-07-24T17:48:17Z</time></trkpt>
<trkpt lat="35.143177" lon="-84.844986"><ele>269.7</ele><time>2026-07-24T17:48:20Z</time></trkpt>
<trkpt lat="35.143166" lon="-84.844939"><ele>269.7</ele><time>2026-07-24T17:48:23Z</time></trkpt>
<trkpt lat="35.143159" lon="-84.844891"><ele>269.1</ele><time>2026-07-24T17:48:26Z</time></trkpt>
<trkpt lat="35.14315" lon="-84.844845"><ele>269.1</ele><time>2026-07-24T17:48:29Z</time></trkpt>
<trkpt lat="35.143143" lon="-84.844799"><ele>269.7</ele><time>2026-07-24T17:48:32Z</time></trkpt>
<trkpt lat="35.143141" lon="-84.844764"><ele>270.1</ele><time>2026-07-24T17:48:34Z</time></trkpt>
<trkpt lat="35.14314" lon="-84.844715"><ele>270.1</ele><time>2026-07-24T17:48:37Z</time></trkpt>
<trkpt lat="35.143135" lon="-84.844669"><ele>270.4</ele><time>2026-07-24T17:48:40Z</time></trkpt>
<trkpt lat="35.143125" lon="-84.844637"><ele>270.4</ele><time>2026-07-24T17:48:42Z</time></trkpt>
<trkpt lat="35.143115" lon="-84.844591"><ele>269.4</ele><time>2026-07-24T17:48:45Z</time></trkpt>
<trkpt lat="35.143103" lon="-84.844549"><ele>269.4</ele><time>2026-07-24T17:48:48Z</time></trkpt>
<trkpt lat="35.143096" lon="-84.844504"><ele>269.7</ele><time>2026-07-24T17:48:51Z</time></trkpt>
<trkpt lat="35.143088" lon="-84.84446"><ele>270.4</ele><time>2026-07-24T17:48:54Z</time></trkpt>
<trkpt lat="35.143079" lon="-84.844415"><ele>269.7</ele><time>2026-07-24T17:48:57Z</time></trkpt>
<trkpt lat="35.143064" lon="-84.844371"><ele>269.1</ele><time>2026-07-24T17:49:00Z</time></trkpt>
<trkpt lat="35.143053" lon="-84.844328"><ele>269.1</ele><time>2026-07-24T17:49:03Z</time></trkpt>
<trkpt lat="35.143043" lon="-84.844286"><ele>268.8</ele><time>2026-07-24T17:49:06Z</time></trkpt>
<trkpt lat="35.143032" lon="-84.844249"><ele>268.8</ele><time>2026-07-24T17:49:09Z</time></trkpt>
<trkpt lat="35.143022" lon="-84.844203"><ele>269.1</ele><time>2026-07-24T17:49:12Z</time></trkpt>
<trkpt lat="35.143014" lon="-84.84417"><ele>269.1</ele><time>2026-07-24T17:49:14Z</time></trkpt>
<trkpt lat="35.143003" lon="-84.844125"><ele>269.4</ele><time>2026-07-24T17:49:17Z</time></trkpt>
<trkpt lat="35.142994" lon="-84.844083"><ele>269.4</ele><time>2026-07-24T17:49:20Z</time></trkpt>
<trkpt lat="35.142982" lon="-84.844041"><ele>268.8</ele><time>2026-07-24T17:49:23Z</time></trkpt>
<trkpt lat="35.142966" lon="-84.843996"><ele>268.8</ele><time>2026-07-24T17:49:26Z</time></trkpt>
<trkpt lat="35.142954" lon="-84.843951"><ele>269.1</ele><time>2026-07-24T17:49:29Z</time></trkpt>
<trkpt lat="35.142944" lon="-84.843908"><ele>268.8</ele><time>2026-07-24T17:49:32Z</time></trkpt>
<trkpt lat="35.142935" lon="-84.843868"><ele>268.5</ele><time>2026-07-24T17:49:35Z</time></trkpt>
<trkpt lat="35.142926" lon="-84.843823"><ele>268.8</ele><time>2026-07-24T17:49:38Z</time></trkpt>
<trkpt lat="35.142919" lon="-84.84379"><ele>268.8</ele><time>2026-07-24T17:49:40Z</time></trkpt>
<trkpt lat="35.142913" lon="-84.843739"><ele>268.5</ele><time>2026-07-24T17:49:43Z</time></trkpt>
<trkpt lat="35.142908" lon="-84.843704"><ele>268.8</ele><time>2026-07-24T17:49:45Z</time></trkpt>
<trkpt lat="35.142911" lon="-84.843657"><ele>269.1</ele><time>2026-07-24T17:49:48Z</time></trkpt>
<trkpt lat="35.142918" lon="-84.843611"><ele>270.4</ele><time>2026-07-24T17:49:51Z</time></trkpt>
<trkpt lat="35.142933" lon="-84.843578"><ele>271.0</ele><time>2026-07-24T17:49:53Z</time></trkpt>
<trkpt lat="35.142953" lon="-84.843549"><ele>271.3</ele><time>2026-07-24T17:49:55Z</time></trkpt>
<trkpt lat="35.142974" lon="-84.843521"><ele>271.0</ele><time>2026-07-24T17:49:57Z</time></trkpt>
<trkpt lat="35.142995" lon="-84.843498"><ele>271.3</ele><time>2026-07-24T17:49:59Z</time></trkpt>
<trkpt lat="35.143017" lon="-84.843476"><ele>271.3</ele><time>2026-07-24T17:50:01Z</time></trkpt>
<trkpt lat="35.143052" lon="-84.84345"><ele>272.2</ele><time>2026-07-24T17:50:04Z</time></trkpt>
<trkpt lat="35.143088" lon="-84.843427"><ele>272.8</ele><time>2026-07-24T17:50:07Z</time></trkpt>
<trkpt lat="35.143124" lon="-84.843407"><ele>273.4</ele><time>2026-07-24T17:50:10Z</time></trkpt>
<trkpt lat="35.143149" lon="-84.843391"><ele>273.4</ele><time>2026-07-24T17:50:12Z</time></trkpt>
<trkpt lat="35.143175" lon="-84.843378"><ele>274.0</ele><time>2026-07-24T17:50:14Z</time></trkpt>
<trkpt lat="35.143203" lon="-84.84337"><ele>274.0</ele><time>2026-07-24T17:50:16Z</time></trkpt>
<trkpt lat="35.143229" lon="-84.84336"><ele>274.0</ele><time>2026-07-24T17:50:18Z</time></trkpt>
<trkpt lat="35.143257" lon="-84.843346"><ele>273.7</ele><time>2026-07-24T17:50:20Z</time></trkpt>
<trkpt lat="35.143292" lon="-84.843331"><ele>274.0</ele><time>2026-07-24T17:50:23Z</time></trkpt>
<trkpt lat="35.143325" lon="-84.843322"><ele>274.3</ele><time>2026-07-24T17:50:26Z</time></trkpt>
<trkpt lat="35.143363" lon="-84.843321"><ele>274.0</ele><time>2026-07-24T17:50:29Z</time></trkpt>
<trkpt lat="35.143391" lon="-84.843331"><ele>274.3</ele><time>2026-07-24T17:50:31Z</time></trkpt>
<trkpt lat="35.143421" lon="-84.843352"><ele>274.3</ele><time>2026-07-24T17:50:33Z</time></trkpt>
<trkpt lat="35.143444" lon="-84.843372"><ele>274.0</ele><time>2026-07-24T17:50:35Z</time></trkpt>
<trkpt lat="35.143465" lon="-84.843398"><ele>274.0</ele><time>2026-07-24T17:50:37Z</time></trkpt>
<trkpt lat="35.143483" lon="-84.843425"><ele>274.0</ele><time>2026-07-24T17:50:39Z</time></trkpt>
<trkpt lat="35.143503" lon="-84.843465"><ele>273.4</ele><time>2026-07-24T17:50:42Z</time></trkpt>
<trkpt lat="35.143517" lon="-84.843496"><ele>273.7</ele><time>2026-07-24T17:50:44Z</time></trkpt>
<trkpt lat="35.143531" lon="-84.843528"><ele>273.7</ele><time>2026-07-24T17:50:46Z</time></trkpt>
<trkpt lat="35.143544" lon="-84.843561"><ele>273.7</ele><time>2026-07-24T17:50:48Z</time></trkpt>
<trkpt lat="35.143555" lon="-84.843593"><ele>273.7</ele><time>2026-07-24T17:50:50Z</time></trkpt>
<trkpt lat="35.143567" lon="-84.843623"><ele>274.0</ele><time>2026-07-24T17:50:52Z</time></trkpt>
<trkpt lat="35.14358" lon="-84.843653"><ele>274.0</ele><time>2026-07-24T17:50:54Z</time></trkpt>
<trkpt lat="35.143599" lon="-84.843696"><ele>274.0</ele><time>2026-07-24T17:50:57Z</time></trkpt>
<trkpt lat="35.143616" lon="-84.843736"><ele>274.0</ele><time>2026-07-24T17:51:00Z</time></trkpt>
<trkpt lat="35.14363" lon="-84.843781"><ele>273.4</ele><time>2026-07-24T17:51:03Z</time></trkpt>
<trkpt lat="35.143648" lon="-84.843825"><ele>273.4</ele><time>2026-07-24T17:51:06Z</time></trkpt>
<trkpt lat="35.143661" lon="-84.843856"><ele>274.0</ele><time>2026-07-24T17:51:08Z</time></trkpt>
<trkpt lat="35.143671" lon="-84.843887"><ele>274.6</ele><time>2026-07-24T17:51:10Z</time></trkpt>
<trkpt lat="35.143683" lon="-84.843918"><ele>274.6</ele><time>2026-07-24T17:51:12Z</time></trkpt>
<trkpt lat="35.143697" lon="-84.843959"><ele>275.2</ele><time>2026-07-24T17:51:15Z</time></trkpt>
<trkpt lat="35.143713" lon="-84.844004"><ele>274.9</ele><time>2026-07-24T17:51:18Z</time></trkpt>
<trkpt lat="35.143721" lon="-84.844036"><ele>274.6</ele><time>2026-07-24T17:51:20Z</time></trkpt>
<trkpt lat="35.143734" lon="-84.844083"><ele>273.7</ele><time>2026-07-24T17:51:23Z</time></trkpt>
<trkpt lat="35.143741" lon="-84.844117"><ele>273.4</ele><time>2026-07-24T17:51:25Z</time></trkpt>
<trkpt lat="35.143749" lon="-84.844151"><ele>273.1</ele><time>2026-07-24T17:51:27Z</time></trkpt>
<trkpt lat="35.14376" lon="-84.844184"><ele>273.1</ele><time>2026-07-24T17:51:29Z</time></trkpt>
<trkpt lat="35.143773" lon="-84.844214"><ele>273.4</ele><time>2026-07-24T17:51:31Z</time></trkpt>
<trkpt lat="35.143784" lon="-84.844246"><ele>273.7</ele><time>2026-07-24T17:51:33Z</time></trkpt>
<trkpt lat="35.143802" lon="-84.844286"><ele>274.3</ele><time>2026-07-24T17:51:36Z</time></trkpt>
<trkpt lat="35.143822" lon="-84.844325"><ele>274.0</ele><time>2026-07-24T17:51:39Z</time></trkpt>
<trkpt lat="35.143846" lon="-84.844359"><ele>273.7</ele><time>2026-07-24T17:51:42Z</time></trkpt>
<trkpt lat="35.143877" lon="-84.844388"><ele>273.7</ele><time>2026-07-24T17:51:45Z</time></trkpt>
<trkpt lat="35.143912" lon="-84.84441"><ele>274.6</ele><time>2026-07-24T17:51:48Z</time></trkpt>
<trkpt lat="35.143938" lon="-84.844422"><ele>275.2</ele><time>2026-07-24T17:51:50Z</time></trkpt>
<trkpt lat="35.143972" lon="-84.844439"><ele>275.5</ele><time>2026-07-24T17:51:53Z</time></trkpt>
<trkpt lat="35.144009" lon="-84.84446"><ele>276.1</ele><time>2026-07-24T17:51:56Z</time></trkpt>
<trkpt lat="35.144033" lon="-84.844476"><ele>276.8</ele><time>2026-07-24T17:51:58Z</time></trkpt>
<trkpt lat="35.144054" lon="-84.844499"><ele>275.8</ele><time>2026-07-24T17:52:00Z</time></trkpt>
<trkpt lat="35.144073" lon="-84.844527"><ele>274.9</ele><time>2026-07-24T17:52:02Z</time></trkpt>
<trkpt lat="35.144091" lon="-84.84457"><ele>273.4</ele><time>2026-07-24T17:52:05Z</time></trkpt>
<trkpt lat="35.144103" lon="-84.8446"><ele>273.1</ele><time>2026-07-24T17:52:07Z</time></trkpt>
<trkpt lat="35.144112" lon="-84.844633"><ele>272.8</ele><time>2026-07-24T17:52:09Z</time></trkpt>
<trkpt lat="35.144121" lon="-84.844666"><ele>273.4</ele><time>2026-07-24T17:52:11Z</time></trkpt>
<trkpt lat="35.144131" lon="-84.8447"><ele>273.1</ele><time>2026-07-24T17:52:13Z</time></trkpt>
<trkpt lat="35.144139" lon="-84.844734"><ele>273.7</ele><time>2026-07-24T17:52:15Z</time></trkpt>
<trkpt lat="35.144153" lon="-84.844764"><ele>273.7</ele><time>2026-07-24T17:52:17Z</time></trkpt>
<trkpt lat="35.144163" lon="-84.844796"><ele>273.1</ele><time>2026-07-24T17:52:19Z</time></trkpt>
<trkpt lat="35.144164" lon="-84.844829"><ele>273.7</ele><time>2026-07-24T17:52:21Z</time></trkpt>
<trkpt lat="35.144144" lon="-84.844871"><ele>273.7</ele><time>2026-07-24T17:52:24Z</time></trkpt>
<trkpt lat="35.144118" lon="-84.844886"><ele>274.0</ele><time>2026-07-24T17:52:26Z</time></trkpt>
<trkpt lat="35.144084" lon="-84.844911"><ele>273.7</ele><time>2026-07-24T17:52:29Z</time></trkpt>
<trkpt lat="35.144049" lon="-84.844932"><ele>273.7</ele><time>2026-07-24T17:52:32Z</time></trkpt>
<trkpt lat="35.144011" lon="-84.844945"><ele>274.3</ele><time>2026-07-24T17:52:35Z</time></trkpt>
<trkpt lat="35.143983" lon="-84.844943"><ele>274.3</ele><time>2026-07-24T17:52:37Z</time></trkpt>
<trkpt lat="35.143956" lon="-84.844951"><ele>273.1</ele><time>2026-07-24T17:52:39Z</time></trkpt>
<trkpt lat="35.143929" lon="-84.844954"><ele>273.4</ele><time>2026-07-24T17:52:41Z</time></trkpt>
<trkpt lat="35.14389" lon="-84.844958"><ele>272.5</ele><time>2026-07-24T17:52:44Z</time></trkpt>
<trkpt lat="35.143863" lon="-84.844971"><ele>272.8</ele><time>2026-07-24T17:52:46Z</time></trkpt>
<trkpt lat="35.143833" lon="-84.844971"><ele>273.7</ele><time>2026-07-24T17:52:48Z</time></trkpt>
<trkpt lat="35.143804" lon="-84.844966"><ele>274.6</ele><time>2026-07-24T17:52:50Z</time></trkpt>
<trkpt lat="35.143776" lon="-84.84496"><ele>273.7</ele><time>2026-07-24T17:52:52Z</time></trkpt>
<trkpt lat="35.143745" lon="-84.844959"><ele>274.0</ele><time>2026-07-24T17:52:54Z</time></trkpt>
<trkpt lat="35.143718" lon="-84.844975"><ele>274.0</ele><time>2026-07-24T17:52:56Z</time></trkpt>
<trkpt lat="35.143697" lon="-84.844999"><ele>273.7</ele><time>2026-07-24T17:52:58Z</time></trkpt>
<trkpt lat="35.143674" lon="-84.845019"><ele>273.7</ele><time>2026-07-24T17:53:00Z</time></trkpt>
<trkpt lat="35.143651" lon="-84.845038"><ele>273.7</ele><time>2026-07-24T17:53:02Z</time></trkpt>
<trkpt lat="35.143629" lon="-84.845058"><ele>274.3</ele><time>2026-07-24T17:53:04Z</time></trkpt>
<trkpt lat="35.143594" lon="-84.845081"><ele>275.2</ele><time>2026-07-24T17:53:07Z</time></trkpt>
<trkpt lat="35.143556" lon="-84.845079"><ele>274.0</ele><time>2026-07-24T17:53:10Z</time></trkpt>
<trkpt lat="35.143517" lon="-84.845084"><ele>273.4</ele><time>2026-07-24T17:53:13Z</time></trkpt>
<trkpt lat="35.14348" lon="-84.845101"><ele>273.7</ele><time>2026-07-24T17:53:16Z</time></trkpt>
<trkpt lat="35.143448" lon="-84.845128"><ele>273.7</ele><time>2026-07-24T17:53:19Z</time></trkpt>
<trkpt lat="35.143426" lon="-84.845148"><ele>274.0</ele><time>2026-07-24T17:53:21Z</time></trkpt>
<trkpt lat="35.143391" lon="-84.84517"><ele>273.7</ele><time>2026-07-24T17:53:24Z</time></trkpt>
<trkpt lat="35.143359" lon="-84.845192"><ele>273.1</ele><time>2026-07-24T17:53:27Z</time></trkpt>
<trkpt lat="35.143326" lon="-84.84521"><ele>273.1</ele><time>2026-07-24T17:53:30Z</time></trkpt>
<trkpt lat="35.143299" lon="-84.845218"><ele>272.8</ele><time>2026-07-24T17:53:32Z</time></trkpt>
<trkpt lat="35.143261" lon="-84.845209"><ele>272.8</ele><time>2026-07-24T17:53:35Z</time></trkpt>
<trkpt lat="35.143239" lon="-84.845187"><ele>273.4</ele><time>2026-07-24T17:53:37Z</time></trkpt>
<trkpt lat="35.143221" lon="-84.845162"><ele>273.7</ele><time>2026-07-24T17:53:39Z</time></trkpt>
<trkpt lat="35.14321" lon="-84.845125"><ele>272.8</ele><time>2026-07-24T17:53:41Z</time></trkpt>
<trkpt lat="35.143199" lon="-84.845092"><ele>272.8</ele><time>2026-07-24T17:53:43Z</time></trkpt>
<trkpt lat="35.143193" lon="-84.845057"><ele>272.5</ele><time>2026-07-24T17:53:45Z</time></trkpt>
<trkpt lat="35.143183" lon="-84.845009"><ele>272.8</ele><time>2026-07-24T17:53:48Z</time></trkpt>
<trkpt lat="35.143175" lon="-84.844964"><ele>272.2</ele><time>2026-07-24T17:53:51Z</time></trkpt>
<trkpt lat="35.143169" lon="-84.844931"><ele>271.9</ele><time>2026-07-24T17:53:53Z</time></trkpt>
<trkpt lat="35.143165" lon="-84.844897"><ele>271.6</ele><time>2026-07-24T17:53:55Z</time></trkpt>
<trkpt lat="35.143159" lon="-84.844862"><ele>271.0</ele><time>2026-07-24T17:53:57Z</time></trkpt>
<trkpt lat="35.143147" lon="-84.844819"><ele>271.3</ele><time>2026-07-24T17:54:00Z</time></trkpt>
<trkpt lat="35.143142" lon="-84.844785"><ele>270.7</ele><time>2026-07-24T17:54:02Z</time></trkpt>
<trkpt lat="35.143138" lon="-84.844749"><ele>271.0</ele><time>2026-07-24T17:54:04Z</time></trkpt>
<trkpt lat="35.143131" lon="-84.844716"><ele>270.7</ele><time>2026-07-24T17:54:06Z</time></trkpt>
<trkpt lat="35.143127" lon="-84.844669"><ele>271.6</ele><time>2026-07-24T17:54:09Z</time></trkpt>
<trkpt lat="35.143117" lon="-84.844628"><ele>270.7</ele><time>2026-07-24T17:54:12Z</time></trkpt>
<trkpt lat="35.14311" lon="-84.844584"><ele>270.7</ele><time>2026-07-24T17:54:15Z</time></trkpt>
<trkpt lat="35.1431" lon="-84.844549"><ele>271.3</ele><time>2026-07-24T17:54:17Z</time></trkpt>
<trkpt lat="35.14309" lon="-84.844503"><ele>271.3</ele><time>2026-07-24T17:54:20Z</time></trkpt>
<trkpt lat="35.143078" lon="-84.844456"><ele>272.2</ele><time>2026-07-24T17:54:23Z</time></trkpt>
<trkpt lat="35.143067" lon="-84.84441"><ele>272.2</ele><time>2026-07-24T17:54:26Z</time></trkpt>
<trkpt lat="35.143056" lon="-84.844369"><ele>271.9</ele><time>2026-07-24T17:54:29Z</time></trkpt>
<trkpt lat="35.143047" lon="-84.844326"><ele>271.9</ele><time>2026-07-24T17:54:32Z</time></trkpt>
<trkpt lat="35.143036" lon="-84.844284"><ele>271.6</ele><time>2026-07-24T17:54:35Z</time></trkpt>
<trkpt lat="35.143028" lon="-84.84424"><ele>271.6</ele><time>2026-07-24T17:54:38Z</time></trkpt>
<trkpt lat="35.143017" lon="-84.844197"><ele>271.6</ele><time>2026-07-24T17:54:41Z</time></trkpt>
<trkpt lat="35.143011" lon="-84.844164"><ele>271.9</ele><time>2026-07-24T17:54:43Z</time></trkpt>
<trkpt lat="35.143003" lon="-84.844122"><ele>272.2</ele><time>2026-07-24T17:54:46Z</time></trkpt>
<trkpt lat="35.142995" lon="-84.844079"><ele>272.2</ele><time>2026-07-24T17:54:49Z</time></trkpt>
<trkpt lat="35.142981" lon="-84.844034"><ele>271.9</ele><time>2026-07-24T17:54:52Z</time></trkpt>
<trkpt lat="35.142969" lon="-84.843988"><ele>271.9</ele><time>2026-07-24T17:54:55Z</time></trkpt>
<trkpt lat="35.142958" lon="-84.843941"><ele>271.6</ele><time>2026-07-24T17:54:58Z</time></trkpt>
<trkpt lat="35.142948" lon="-84.843896"><ele>271.9</ele><time>2026-07-24T17:55:01Z</time></trkpt>
<trkpt lat="35.142937" lon="-84.843849"><ele>271.9</ele><time>2026-07-24T17:55:04Z</time></trkpt>
<trkpt lat="35.142928" lon="-84.843804"><ele>271.9</ele><time>2026-07-24T17:55:07Z</time></trkpt>
<trkpt lat="35.142917" lon="-84.843758"><ele>271.9</ele><time>2026-07-24T17:55:10Z</time></trkpt>
<trkpt lat="35.142914" lon="-84.843725"><ele>272.5</ele><time>2026-07-24T17:55:12Z</time></trkpt>
<trkpt lat="35.142915" lon="-84.843677"><ele>272.2</ele><time>2026-07-24T17:55:15Z</time></trkpt>
<trkpt lat="35.142921" lon="-84.843632"><ele>272.5</ele><time>2026-07-24T17:55:18Z</time></trkpt>
<trkpt lat="35.142938" lon="-84.843585"><ele>272.5</ele><time>2026-07-24T17:55:21Z</time></trkpt>
<trkpt lat="35.142954" lon="-84.843557"><ele>272.5</ele><time>2026-07-24T17:55:23Z</time></trkpt>
<trkpt lat="35.142979" lon="-84.843523"><ele>272.2</ele><time>2026-07-24T17:55:26Z</time></trkpt>
<trkpt lat="35.143003" lon="-84.843502"><ele>271.9</ele><time>2026-07-24T17:55:28Z</time></trkpt>
<trkpt lat="35.14304" lon="-84.84348"><ele>271.9</ele><time>2026-07-24T17:55:31Z</time></trkpt>
<trkpt lat="35.143078" lon="-84.843461"><ele>271.6</ele><time>2026-07-24T17:55:34Z</time></trkpt>
<trkpt lat="35.143104" lon="-84.843449"><ele>271.6</ele><time>2026-07-24T17:55:36Z</time></trkpt>
<trkpt lat="35.143129" lon="-84.843433"><ele>271.3</ele><time>2026-07-24T17:55:38Z</time></trkpt>
<trkpt lat="35.143167" lon="-84.843414"><ele>271.6</ele><time>2026-07-24T17:55:41Z</time></trkpt>
<trkpt lat="35.143205" lon="-84.843395"><ele>271.9</ele><time>2026-07-24T17:55:44Z</time></trkpt>
<trkpt lat="35.143232" lon="-84.843384"><ele>271.9</ele><time>2026-07-24T17:55:46Z</time></trkpt>
<trkpt lat="35.143269" lon="-84.843371"><ele>272.2</ele><time>2026-07-24T17:55:49Z</time></trkpt>
<trkpt lat="35.143308" lon="-84.843355"><ele>272.5</ele><time>2026-07-24T17:55:52Z</time></trkpt>
<trkpt lat="35.143336" lon="-84.84335"><ele>272.8</ele><time>2026-07-24T17:55:54Z</time></trkpt>
<trkpt lat="35.143366" lon="-84.843349"><ele>272.8</ele><time>2026-07-24T17:55:56Z</time></trkpt>
<trkpt lat="35.143407" lon="-84.843355"><ele>272.8</ele><time>2026-07-24T17:55:59Z</time></trkpt>
<trkpt lat="35.143443" lon="-84.843379"><ele>273.1</ele><time>2026-07-24T17:56:02Z</time></trkpt>
<trkpt lat="35.143474" lon="-84.843412"><ele>273.4</ele><time>2026-07-24T17:56:05Z</time></trkpt>
<trkpt lat="35.143492" lon="-84.843439"><ele>273.7</ele><time>2026-07-24T17:56:07Z</time></trkpt>
<trkpt lat="35.143511" lon="-84.843481"><ele>274.0</ele><time>2026-07-24T17:56:10Z</time></trkpt>
<trkpt lat="35.14353" lon="-84.843524"><ele>273.7</ele><time>2026-07-24T17:56:13Z</time></trkpt>
<trkpt lat="35.14354" lon="-84.843556"><ele>273.7</ele><time>2026-07-24T17:56:15Z</time></trkpt>
<trkpt lat="35.143551" lon="-84.843587"><ele>273.7</ele><time>2026-07-24T17:56:17Z</time></trkpt>
<trkpt lat="35.143564" lon="-84.843618"><ele>273.7</ele><time>2026-07-24T17:56:19Z</time></trkpt>
<trkpt lat="35.143592" lon="-84.843651"><ele>273.4</ele><time>2026-07-24T17:56:22Z</time></trkpt>
<trkpt lat="35.143613" lon="-84.843624"><ele>273.1</ele><time>2026-07-24T17:56:24Z</time></trkpt>
<trkpt lat="35.143608" lon="-84.843588"><ele>273.7</ele><time>2026-07-24T17:56:26Z</time></trkpt>
<trkpt lat="35.143598" lon="-84.843542"><ele>274.9</ele><time>2026-07-24T17:56:29Z</time></trkpt>
<trkpt lat="35.143578" lon="-84.8435"><ele>275.8</ele><time>2026-07-24T17:56:32Z</time></trkpt>
<trkpt lat="35.143567" lon="-84.843454"><ele>276.5</ele><time>2026-07-24T17:56:35Z</time></trkpt>
<trkpt lat="35.143556" lon="-84.843413"><ele>276.8</ele><time>2026-07-24T17:56:38Z</time></trkpt>
<trkpt lat="35.143523" lon="-84.843409"><ele>276.5</ele><time>2026-07-24T17:56:40Z</time></trkpt>
<trkpt lat="35.14351" lon="-84.843431"><ele>276.5</ele><time>2026-07-24T17:56:41Z</time></trkpt>
</trkseg></trk></gpx>